<?xml version="1.0" encoding="UTF-8" standalone="no" ?>
<gpx xmlns="http://www.topografix.com/GPX/1/1" xmlns:xsi="http://www.w3.org/2001/XMLSchema-instance" xsi:schemaLocation="http://www.topografix.com/GPX/1/1 http://www.topografix.com/GPX/1/1/gpx.xsd" version="1.1" creator="VisuGPX - https://www.visugpx.com">
  <metadata>
    <name>Pierre Chauve en boucle</name>
    <desc><![CDATA[Pierre Chauve en boucle. Montée par le Pas du Touet, retour par le Pas de Saint Vincent.

[i]Montée à Pierre Chauve[/i]
Après que le GR93 ait traversé une parcelle cultivée (après le Creux du Loup) prendre à gauche en longeant la clôture à l'extérieur de la parcelle. Un peu plus loin une sente part dans le bois. Elle longe au départ un vieux fil barbelé qu'elle franchi un peu plus loin. Elle se perd à la sortie du bois. Remonter les prairies pour rejoindre les pistes d'exploitation et rejoindre le sentier montant à Pierre Chauve par sa face est.

[i]Retour au sentier du Pas du Touet[/i]
Dans la descente du Pas de Saint Vincent, vers 900 m, une sente, absente de la carte IGN, part sur la gauche et permet de rejoindre le bas du sentier du Pas du Touet. Le départ est marqué par un petit cairn au pied d'un petit éboulis. Il faut remonter l'éboulis sur 3 ou 4 mètres pour trouver la sente. Elle n'est pas très bien marquée et demande un peu d'attention par endroit.]]></desc>
  </metadata>
  <trk>
    <name><![CDATA[2022-08-16 14:25:37]]></name>
    <trkseg>
      <trkpt lat="44.90633" lon="5.1225">
        <ele>455.32</ele>
        <time>2022-08-16T08:02:32Z</time>
      </trkpt>
      <trkpt lat="44.90635" lon="5.12267">
        <ele>455.32</ele>
        <time>2022-08-16T08:02:42Z</time>
      </trkpt>
      <trkpt lat="44.90638" lon="5.12297">
        <ele>457.24</ele>
        <time>2022-08-16T08:03:00Z</time>
      </trkpt>
      <trkpt lat="44.9064" lon="5.1232">
        <ele>457.72</ele>
        <time>2022-08-16T08:03:14Z</time>
      </trkpt>
      <trkpt lat="44.90644" lon="5.12329">
        <ele>458.21</ele>
        <time>2022-08-16T08:03:20Z</time>
      </trkpt>
      <trkpt lat="44.9065" lon="5.12342">
        <ele>459.17</ele>
        <time>2022-08-16T08:03:29Z</time>
      </trkpt>
      <trkpt lat="44.90662" lon="5.12367">
        <ele>460.61</ele>
        <time>2022-08-16T08:03:45Z</time>
      </trkpt>
      <trkpt lat="44.90659" lon="5.12388">
        <ele>463.01</ele>
        <time>2022-08-16T08:03:59Z</time>
      </trkpt>
      <trkpt lat="44.90652" lon="5.124">
        <ele>463.97</ele>
        <time>2022-08-16T08:04:09Z</time>
      </trkpt>
      <trkpt lat="44.90642" lon="5.1242">
        <ele>466.38</ele>
        <time>2022-08-16T08:04:23Z</time>
      </trkpt>
      <trkpt lat="44.90641" lon="5.12439">
        <ele>467.82</ele>
        <time>2022-08-16T08:04:32Z</time>
      </trkpt>
      <trkpt lat="44.90646" lon="5.12462">
        <ele>470.22</ele>
        <time>2022-08-16T08:04:48Z</time>
      </trkpt>
      <trkpt lat="44.90649" lon="5.12483">
        <ele>472.63</ele>
        <time>2022-08-16T08:05:04Z</time>
      </trkpt>
      <trkpt lat="44.90647" lon="5.12498">
        <ele>474.07</ele>
        <time>2022-08-16T08:05:17Z</time>
      </trkpt>
      <trkpt lat="44.90644" lon="5.12509">
        <ele>475.99</ele>
        <time>2022-08-16T08:05:29Z</time>
      </trkpt>
      <trkpt lat="44.90636" lon="5.12521">
        <ele>478.39</ele>
        <time>2022-08-16T08:05:46Z</time>
      </trkpt>
      <trkpt lat="44.9063" lon="5.12531">
        <ele>480.8</ele>
        <time>2022-08-16T08:05:58Z</time>
      </trkpt>
      <trkpt lat="44.90622" lon="5.12542">
        <ele>482.24</ele>
        <time>2022-08-16T08:06:11Z</time>
      </trkpt>
      <trkpt lat="44.90617" lon="5.12554">
        <ele>484.64</ele>
        <time>2022-08-16T08:06:24Z</time>
      </trkpt>
      <trkpt lat="44.90619" lon="5.12566">
        <ele>487.05</ele>
        <time>2022-08-16T08:06:37Z</time>
      </trkpt>
      <trkpt lat="44.9062" lon="5.12576">
        <ele>488.49</ele>
        <time>2022-08-16T08:06:49Z</time>
      </trkpt>
      <trkpt lat="44.90618" lon="5.12586">
        <ele>490.41</ele>
        <time>2022-08-16T08:07:03Z</time>
      </trkpt>
      <trkpt lat="44.90613" lon="5.12596">
        <ele>493.77</ele>
        <time>2022-08-16T08:07:17Z</time>
      </trkpt>
      <trkpt lat="44.90615" lon="5.12612">
        <ele>496.18</ele>
        <time>2022-08-16T08:07:32Z</time>
      </trkpt>
      <trkpt lat="44.90619" lon="5.12618">
        <ele>499.06</ele>
        <time>2022-08-16T08:07:46Z</time>
      </trkpt>
      <trkpt lat="44.9063" lon="5.12626">
        <ele>502.43</ele>
        <time>2022-08-16T08:08:02Z</time>
      </trkpt>
      <trkpt lat="44.90637" lon="5.12634">
        <ele>503.87</ele>
        <time>2022-08-16T08:08:16Z</time>
      </trkpt>
      <trkpt lat="44.90645" lon="5.12649">
        <ele>506.27</ele>
        <time>2022-08-16T08:08:31Z</time>
      </trkpt>
      <trkpt lat="44.90643" lon="5.12663">
        <ele>508.19</ele>
        <time>2022-08-16T08:08:43Z</time>
      </trkpt>
      <trkpt lat="44.90641" lon="5.12679">
        <ele>510.12</ele>
        <time>2022-08-16T08:08:58Z</time>
      </trkpt>
      <trkpt lat="44.90637" lon="5.12699">
        <ele>512.52</ele>
        <time>2022-08-16T08:09:13Z</time>
      </trkpt>
      <trkpt lat="44.90634" lon="5.12714">
        <ele>514.44</ele>
        <time>2022-08-16T08:09:25Z</time>
      </trkpt>
      <trkpt lat="44.90631" lon="5.12719">
        <ele>514.44</ele>
        <time>2022-08-16T08:09:29Z</time>
      </trkpt>
      <trkpt lat="44.90626" lon="5.12736">
        <ele>516.37</ele>
        <time>2022-08-16T08:09:41Z</time>
      </trkpt>
      <trkpt lat="44.90622" lon="5.12757">
        <ele>516.85</ele>
        <time>2022-08-16T08:09:51Z</time>
      </trkpt>
      <trkpt lat="44.9062" lon="5.12762">
        <ele>517.33</ele>
        <time>2022-08-16T08:09:54Z</time>
      </trkpt>
      <trkpt lat="44.90614" lon="5.12785">
        <ele>519.25</ele>
        <time>2022-08-16T08:10:09Z</time>
      </trkpt>
      <trkpt lat="44.90608" lon="5.12804">
        <ele>520.69</ele>
        <time>2022-08-16T08:10:23Z</time>
      </trkpt>
      <trkpt lat="44.90605" lon="5.12828">
        <ele>523.58</ele>
        <time>2022-08-16T08:10:39Z</time>
      </trkpt>
      <trkpt lat="44.90601" lon="5.12848">
        <ele>525.98</ele>
        <time>2022-08-16T08:10:53Z</time>
      </trkpt>
      <trkpt lat="44.90599" lon="5.12867">
        <ele>528.38</ele>
        <time>2022-08-16T08:11:06Z</time>
      </trkpt>
      <trkpt lat="44.90599" lon="5.1288">
        <ele>529.82</ele>
        <time>2022-08-16T08:11:14Z</time>
      </trkpt>
      <trkpt lat="44.90601" lon="5.12899">
        <ele>531.27</ele>
        <time>2022-08-16T08:11:25Z</time>
      </trkpt>
      <trkpt lat="44.90601" lon="5.12917">
        <ele>532.71</ele>
        <time>2022-08-16T08:11:37Z</time>
      </trkpt>
      <trkpt lat="44.906" lon="5.12922">
        <ele>533.67</ele>
        <time>2022-08-16T08:11:41Z</time>
      </trkpt>
      <trkpt lat="44.90598" lon="5.12934">
        <ele>534.63</ele>
        <time>2022-08-16T08:11:50Z</time>
      </trkpt>
      <trkpt lat="44.90596" lon="5.12943">
        <ele>536.55</ele>
        <time>2022-08-16T08:11:57Z</time>
      </trkpt>
      <trkpt lat="44.90596" lon="5.12946">
        <ele>536.55</ele>
        <time>2022-08-16T08:11:59Z</time>
      </trkpt>
      <trkpt lat="44.90594" lon="5.12969">
        <ele>538.48</ele>
        <time>2022-08-16T08:12:13Z</time>
      </trkpt>
      <trkpt lat="44.90594" lon="5.12995">
        <ele>540.88</ele>
        <time>2022-08-16T08:12:29Z</time>
      </trkpt>
      <trkpt lat="44.90592" lon="5.13015">
        <ele>542.8</ele>
        <time>2022-08-16T08:12:42Z</time>
      </trkpt>
      <trkpt lat="44.9059" lon="5.13034">
        <ele>545.2</ele>
        <time>2022-08-16T08:12:56Z</time>
      </trkpt>
      <trkpt lat="44.90586" lon="5.13057">
        <ele>548.09</ele>
        <time>2022-08-16T08:13:13Z</time>
      </trkpt>
      <trkpt lat="44.90582" lon="5.13077">
        <ele>550.97</ele>
        <time>2022-08-16T08:13:27Z</time>
      </trkpt>
      <trkpt lat="44.90579" lon="5.13096">
        <ele>552.9</ele>
        <time>2022-08-16T08:13:40Z</time>
      </trkpt>
      <trkpt lat="44.90579" lon="5.13111">
        <ele>554.34</ele>
        <time>2022-08-16T08:13:52Z</time>
      </trkpt>
      <trkpt lat="44.9058" lon="5.13128">
        <ele>556.74</ele>
        <time>2022-08-16T08:14:06Z</time>
      </trkpt>
      <trkpt lat="44.90577" lon="5.13144">
        <ele>558.66</ele>
        <time>2022-08-16T08:14:20Z</time>
      </trkpt>
      <trkpt lat="44.90576" lon="5.13163">
        <ele>561.07</ele>
        <time>2022-08-16T08:14:34Z</time>
      </trkpt>
      <trkpt lat="44.90577" lon="5.13178">
        <ele>562.03</ele>
        <time>2022-08-16T08:14:45Z</time>
      </trkpt>
      <trkpt lat="44.90578" lon="5.13197">
        <ele>563.95</ele>
        <time>2022-08-16T08:14:58Z</time>
      </trkpt>
      <trkpt lat="44.90578" lon="5.13211">
        <ele>567.32</ele>
        <time>2022-08-16T08:15:14Z</time>
      </trkpt>
      <trkpt lat="44.90575" lon="5.13228">
        <ele>569.24</ele>
        <time>2022-08-16T08:15:28Z</time>
      </trkpt>
      <trkpt lat="44.90573" lon="5.13241">
        <ele>571.64</ele>
        <time>2022-08-16T08:15:41Z</time>
      </trkpt>
      <trkpt lat="44.9057" lon="5.13259">
        <ele>574.04</ele>
        <time>2022-08-16T08:15:54Z</time>
      </trkpt>
      <trkpt lat="44.90568" lon="5.1327">
        <ele>575.01</ele>
        <time>2022-08-16T08:16:02Z</time>
      </trkpt>
      <trkpt lat="44.90566" lon="5.13286">
        <ele>577.89</ele>
        <time>2022-08-16T08:16:15Z</time>
      </trkpt>
      <trkpt lat="44.90566" lon="5.13292">
        <ele>578.85</ele>
        <time>2022-08-16T08:16:21Z</time>
      </trkpt>
      <trkpt lat="44.90564" lon="5.13308">
        <ele>580.77</ele>
        <time>2022-08-16T08:16:35Z</time>
      </trkpt>
      <trkpt lat="44.90562" lon="5.13324">
        <ele>582.7</ele>
        <time>2022-08-16T08:16:46Z</time>
      </trkpt>
      <trkpt lat="44.90559" lon="5.13343">
        <ele>584.62</ele>
        <time>2022-08-16T08:16:59Z</time>
      </trkpt>
      <trkpt lat="44.90558" lon="5.1336">
        <ele>587.98</ele>
        <time>2022-08-16T08:17:13Z</time>
      </trkpt>
      <trkpt lat="44.90556" lon="5.13371">
        <ele>590.39</ele>
        <time>2022-08-16T08:17:27Z</time>
      </trkpt>
      <trkpt lat="44.90552" lon="5.13384">
        <ele>592.79</ele>
        <time>2022-08-16T08:17:40Z</time>
      </trkpt>
      <trkpt lat="44.9055" lon="5.13394">
        <ele>593.75</ele>
        <time>2022-08-16T08:17:47Z</time>
      </trkpt>
      <trkpt lat="44.9055" lon="5.13402">
        <ele>594.71</ele>
        <time>2022-08-16T08:17:52Z</time>
      </trkpt>
      <trkpt lat="44.9055" lon="5.13422">
        <ele>596.15</ele>
        <time>2022-08-16T08:18:06Z</time>
      </trkpt>
      <trkpt lat="44.90554" lon="5.13434">
        <ele>598.08</ele>
        <time>2022-08-16T08:18:15Z</time>
      </trkpt>
      <trkpt lat="44.90557" lon="5.13443">
        <ele>598.56</ele>
        <time>2022-08-16T08:18:21Z</time>
      </trkpt>
      <trkpt lat="44.90558" lon="5.1346">
        <ele>600.48</ele>
        <time>2022-08-16T08:18:34Z</time>
      </trkpt>
      <trkpt lat="44.90558" lon="5.13472">
        <ele>602.4</ele>
        <time>2022-08-16T08:18:46Z</time>
      </trkpt>
      <trkpt lat="44.90558" lon="5.13489">
        <ele>604.33</ele>
        <time>2022-08-16T08:18:59Z</time>
      </trkpt>
      <trkpt lat="44.90561" lon="5.13502">
        <ele>606.73</ele>
        <time>2022-08-16T08:19:10Z</time>
      </trkpt>
      <trkpt lat="44.90558" lon="5.13515">
        <ele>608.65</ele>
        <time>2022-08-16T08:19:23Z</time>
      </trkpt>
      <trkpt lat="44.9056" lon="5.13534">
        <ele>611.06</ele>
        <time>2022-08-16T08:19:37Z</time>
      </trkpt>
      <trkpt lat="44.9056" lon="5.1354">
        <ele>612.02</ele>
        <time>2022-08-16T08:19:42Z</time>
      </trkpt>
      <trkpt lat="44.90558" lon="5.13557">
        <ele>614.42</ele>
        <time>2022-08-16T08:19:56Z</time>
      </trkpt>
      <trkpt lat="44.90559" lon="5.13572">
        <ele>616.34</ele>
        <time>2022-08-16T08:20:09Z</time>
      </trkpt>
      <trkpt lat="44.90561" lon="5.13585">
        <ele>618.75</ele>
        <time>2022-08-16T08:20:22Z</time>
      </trkpt>
      <trkpt lat="44.90561" lon="5.136">
        <ele>620.67</ele>
        <time>2022-08-16T08:20:35Z</time>
      </trkpt>
      <trkpt lat="44.90565" lon="5.13613">
        <ele>623.07</ele>
        <time>2022-08-16T08:20:49Z</time>
      </trkpt>
      <trkpt lat="44.90566" lon="5.13623">
        <ele>624.99</ele>
        <time>2022-08-16T08:20:58Z</time>
      </trkpt>
      <trkpt lat="44.90564" lon="5.13639">
        <ele>627.4</ele>
        <time>2022-08-16T08:21:12Z</time>
      </trkpt>
      <trkpt lat="44.90572" lon="5.13651">
        <ele>629.8</ele>
        <time>2022-08-16T08:21:26Z</time>
      </trkpt>
      <trkpt lat="44.90575" lon="5.1367">
        <ele>632.68</ele>
        <time>2022-08-16T08:21:41Z</time>
      </trkpt>
      <trkpt lat="44.90574" lon="5.13683">
        <ele>635.57</ele>
        <time>2022-08-16T08:21:57Z</time>
      </trkpt>
      <trkpt lat="44.90572" lon="5.13698">
        <ele>637.97</ele>
        <time>2022-08-16T08:22:10Z</time>
      </trkpt>
      <trkpt lat="44.90571" lon="5.13703">
        <ele>638.93</ele>
        <time>2022-08-16T08:22:15Z</time>
      </trkpt>
      <trkpt lat="44.90568" lon="5.13716">
        <ele>641.82</ele>
        <time>2022-08-16T08:22:30Z</time>
      </trkpt>
      <trkpt lat="44.90567" lon="5.13728">
        <ele>644.22</ele>
        <time>2022-08-16T08:22:44Z</time>
      </trkpt>
      <trkpt lat="44.90565" lon="5.13738">
        <ele>647.59</ele>
        <time>2022-08-16T08:23:01Z</time>
      </trkpt>
      <trkpt lat="44.90561" lon="5.13749">
        <ele>649.99</ele>
        <time>2022-08-16T08:23:16Z</time>
      </trkpt>
      <trkpt lat="44.90559" lon="5.13763">
        <ele>652.39</ele>
        <time>2022-08-16T08:23:29Z</time>
      </trkpt>
      <trkpt lat="44.90555" lon="5.13777">
        <ele>654.8</ele>
        <time>2022-08-16T08:23:43Z</time>
      </trkpt>
      <trkpt lat="44.90548" lon="5.13783">
        <ele>657.2</ele>
        <time>2022-08-16T08:23:56Z</time>
      </trkpt>
      <trkpt lat="44.90545" lon="5.13795">
        <ele>659.6</ele>
        <time>2022-08-16T08:24:10Z</time>
      </trkpt>
      <trkpt lat="44.90537" lon="5.13807">
        <ele>662.01</ele>
        <time>2022-08-16T08:24:25Z</time>
      </trkpt>
      <trkpt lat="44.90532" lon="5.13813">
        <ele>664.41</ele>
        <time>2022-08-16T08:24:36Z</time>
      </trkpt>
      <trkpt lat="44.90529" lon="5.13824">
        <ele>667.29</ele>
        <time>2022-08-16T08:24:49Z</time>
      </trkpt>
      <trkpt lat="44.90524" lon="5.13833">
        <ele>670.18</ele>
        <time>2022-08-16T08:25:04Z</time>
      </trkpt>
      <trkpt lat="44.90517" lon="5.13843">
        <ele>673.06</ele>
        <time>2022-08-16T08:25:19Z</time>
      </trkpt>
      <trkpt lat="44.90516" lon="5.13849">
        <ele>674.02</ele>
        <time>2022-08-16T08:25:27Z</time>
      </trkpt>
      <trkpt lat="44.90503" lon="5.13851">
        <ele>676.91</ele>
        <time>2022-08-16T08:25:41Z</time>
      </trkpt>
      <trkpt lat="44.9049" lon="5.13852">
        <ele>679.31</ele>
        <time>2022-08-16T08:25:57Z</time>
      </trkpt>
      <trkpt lat="44.90483" lon="5.13862">
        <ele>682.19</ele>
        <time>2022-08-16T08:26:11Z</time>
      </trkpt>
      <trkpt lat="44.90478" lon="5.1387">
        <ele>685.56</ele>
        <time>2022-08-16T08:26:28Z</time>
      </trkpt>
      <trkpt lat="44.90473" lon="5.13878">
        <ele>688.44</ele>
        <time>2022-08-16T08:26:43Z</time>
      </trkpt>
      <trkpt lat="44.90466" lon="5.13885">
        <ele>691.81</ele>
        <time>2022-08-16T08:26:58Z</time>
      </trkpt>
      <trkpt lat="44.90457" lon="5.13896">
        <ele>694.69</ele>
        <time>2022-08-16T08:27:15Z</time>
      </trkpt>
      <trkpt lat="44.90449" lon="5.139">
        <ele>697.09</ele>
        <time>2022-08-16T08:27:30Z</time>
      </trkpt>
      <trkpt lat="44.90444" lon="5.13906">
        <ele>699.02</ele>
        <time>2022-08-16T08:27:43Z</time>
      </trkpt>
      <trkpt lat="44.90442" lon="5.13913">
        <ele>702.38</ele>
        <time>2022-08-16T08:27:58Z</time>
      </trkpt>
      <trkpt lat="44.90434" lon="5.13923">
        <ele>705.26</ele>
        <time>2022-08-16T08:28:15Z</time>
      </trkpt>
      <trkpt lat="44.90428" lon="5.13935">
        <ele>707.67</ele>
        <time>2022-08-16T08:28:31Z</time>
      </trkpt>
      <trkpt lat="44.90424" lon="5.13944">
        <ele>711.51</ele>
        <time>2022-08-16T08:28:44Z</time>
      </trkpt>
      <trkpt lat="44.90418" lon="5.13951">
        <ele>713.92</ele>
        <time>2022-08-16T08:28:58Z</time>
      </trkpt>
      <trkpt lat="44.90416" lon="5.1396">
        <ele>716.32</ele>
        <time>2022-08-16T08:29:13Z</time>
      </trkpt>
      <trkpt lat="44.90413" lon="5.13969">
        <ele>719.68</ele>
        <time>2022-08-16T08:29:28Z</time>
      </trkpt>
      <trkpt lat="44.90406" lon="5.13978">
        <ele>722.09</ele>
        <time>2022-08-16T08:29:44Z</time>
      </trkpt>
      <trkpt lat="44.90403" lon="5.13985">
        <ele>724.49</ele>
        <time>2022-08-16T08:29:56Z</time>
      </trkpt>
      <trkpt lat="44.90397" lon="5.1399">
        <ele>727.37</ele>
        <time>2022-08-16T08:30:12Z</time>
      </trkpt>
      <trkpt lat="44.90392" lon="5.13998">
        <ele>730.26</ele>
        <time>2022-08-16T08:30:26Z</time>
      </trkpt>
      <trkpt lat="44.90388" lon="5.14003">
        <ele>733.14</ele>
        <time>2022-08-16T08:30:40Z</time>
      </trkpt>
      <trkpt lat="44.90387" lon="5.14012">
        <ele>735.07</ele>
        <time>2022-08-16T08:30:53Z</time>
      </trkpt>
      <trkpt lat="44.90383" lon="5.14023">
        <ele>738.43</ele>
        <time>2022-08-16T08:31:08Z</time>
      </trkpt>
      <trkpt lat="44.90376" lon="5.1403">
        <ele>740.35</ele>
        <time>2022-08-16T08:31:21Z</time>
      </trkpt>
      <trkpt lat="44.90363" lon="5.14034">
        <ele>742.76</ele>
        <time>2022-08-16T08:31:35Z</time>
      </trkpt>
      <trkpt lat="44.9036" lon="5.14042">
        <ele>745.16</ele>
        <time>2022-08-16T08:31:49Z</time>
      </trkpt>
      <trkpt lat="44.90352" lon="5.14054">
        <ele>748.52</ele>
        <time>2022-08-16T08:32:03Z</time>
      </trkpt>
      <trkpt lat="44.90351" lon="5.14061">
        <ele>750.45</ele>
        <time>2022-08-16T08:32:15Z</time>
      </trkpt>
      <trkpt lat="44.90341" lon="5.14066">
        <ele>753.33</ele>
        <time>2022-08-16T08:32:29Z</time>
      </trkpt>
      <trkpt lat="44.90331" lon="5.14072">
        <ele>756.21</ele>
        <time>2022-08-16T08:32:44Z</time>
      </trkpt>
      <trkpt lat="44.90323" lon="5.14079">
        <ele>758.62</ele>
        <time>2022-08-16T08:32:58Z</time>
      </trkpt>
      <trkpt lat="44.90313" lon="5.14084">
        <ele>761.5</ele>
        <time>2022-08-16T08:33:13Z</time>
      </trkpt>
      <trkpt lat="44.90302" lon="5.14087">
        <ele>763.9</ele>
        <time>2022-08-16T08:33:28Z</time>
      </trkpt>
      <trkpt lat="44.903" lon="5.14095">
        <ele>766.79</ele>
        <time>2022-08-16T08:33:42Z</time>
      </trkpt>
      <trkpt lat="44.90307" lon="5.14102">
        <ele>769.67</ele>
        <time>2022-08-16T08:33:56Z</time>
      </trkpt>
      <trkpt lat="44.90313" lon="5.14102">
        <ele>771.6</ele>
        <time>2022-08-16T08:34:08Z</time>
      </trkpt>
      <trkpt lat="44.90313" lon="5.1411">
        <ele>774</ele>
        <time>2022-08-16T08:34:23Z</time>
      </trkpt>
      <trkpt lat="44.90306" lon="5.14113">
        <ele>777.36</ele>
        <time>2022-08-16T08:34:39Z</time>
      </trkpt>
      <trkpt lat="44.90298" lon="5.14124">
        <ele>780.25</ele>
        <time>2022-08-16T08:34:53Z</time>
      </trkpt>
      <trkpt lat="44.90296" lon="5.14131">
        <ele>782.65</ele>
        <time>2022-08-16T08:35:07Z</time>
      </trkpt>
      <trkpt lat="44.90297" lon="5.14137">
        <ele>786.02</ele>
        <time>2022-08-16T08:35:21Z</time>
      </trkpt>
      <trkpt lat="44.90291" lon="5.14142">
        <ele>788.42</ele>
        <time>2022-08-16T08:35:37Z</time>
      </trkpt>
      <trkpt lat="44.90279" lon="5.14154">
        <ele>790.82</ele>
        <time>2022-08-16T08:35:54Z</time>
      </trkpt>
      <trkpt lat="44.90271" lon="5.14163">
        <ele>793.71</ele>
        <time>2022-08-16T08:36:11Z</time>
      </trkpt>
      <trkpt lat="44.90264" lon="5.14173">
        <ele>797.07</ele>
        <time>2022-08-16T08:36:27Z</time>
      </trkpt>
      <trkpt lat="44.90259" lon="5.14179">
        <ele>799.47</ele>
        <time>2022-08-16T08:36:40Z</time>
      </trkpt>
      <trkpt lat="44.90255" lon="5.14187">
        <ele>802.36</ele>
        <time>2022-08-16T08:36:54Z</time>
      </trkpt>
      <trkpt lat="44.90246" lon="5.14195">
        <ele>804.76</ele>
        <time>2022-08-16T08:37:09Z</time>
      </trkpt>
      <trkpt lat="44.90238" lon="5.14203">
        <ele>808.13</ele>
        <time>2022-08-16T08:37:24Z</time>
      </trkpt>
      <trkpt lat="44.90238" lon="5.14205">
        <ele>808.61</ele>
        <time>2022-08-16T08:37:26Z</time>
      </trkpt>
      <trkpt lat="44.90231" lon="5.1421">
        <ele>811.01</ele>
        <time>2022-08-16T08:37:41Z</time>
      </trkpt>
      <trkpt lat="44.90224" lon="5.14217">
        <ele>813.89</ele>
        <time>2022-08-16T08:37:55Z</time>
      </trkpt>
      <trkpt lat="44.90223" lon="5.14219">
        <ele>814.37</ele>
        <time>2022-08-16T08:37:57Z</time>
      </trkpt>
      <trkpt lat="44.90214" lon="5.1423">
        <ele>817.26</ele>
        <time>2022-08-16T08:38:11Z</time>
      </trkpt>
      <trkpt lat="44.90218" lon="5.1424">
        <ele>819.66</ele>
        <time>2022-08-16T08:38:25Z</time>
      </trkpt>
      <trkpt lat="44.90226" lon="5.14239">
        <ele>822.06</ele>
        <time>2022-08-16T08:38:41Z</time>
      </trkpt>
      <trkpt lat="44.90233" lon="5.1424">
        <ele>824.47</ele>
        <time>2022-08-16T08:38:53Z</time>
      </trkpt>
      <trkpt lat="44.90239" lon="5.1424">
        <ele>826.87</ele>
        <time>2022-08-16T08:39:06Z</time>
      </trkpt>
      <trkpt lat="44.90248" lon="5.14239">
        <ele>829.76</ele>
        <time>2022-08-16T08:39:21Z</time>
      </trkpt>
      <trkpt lat="44.90249" lon="5.14239">
        <ele>830.24</ele>
        <time>2022-08-16T08:39:22Z</time>
      </trkpt>
      <trkpt lat="44.90261" lon="5.14237">
        <ele>831.68</ele>
        <time>2022-08-16T08:39:35Z</time>
      </trkpt>
      <trkpt lat="44.90269" lon="5.14237">
        <ele>834.08</ele>
        <time>2022-08-16T08:39:49Z</time>
      </trkpt>
      <trkpt lat="44.90279" lon="5.14238">
        <ele>836.96</ele>
        <time>2022-08-16T08:40:03Z</time>
      </trkpt>
      <trkpt lat="44.90291" lon="5.1424">
        <ele>839.37</ele>
        <time>2022-08-16T08:40:15Z</time>
      </trkpt>
      <trkpt lat="44.90303" lon="5.14243">
        <ele>841.29</ele>
        <time>2022-08-16T08:40:29Z</time>
      </trkpt>
      <trkpt lat="44.90312" lon="5.14245">
        <ele>843.69</ele>
        <time>2022-08-16T08:40:45Z</time>
      </trkpt>
      <trkpt lat="44.90313" lon="5.1425">
        <ele>846.1</ele>
        <time>2022-08-16T08:40:58Z</time>
      </trkpt>
      <trkpt lat="44.90307" lon="5.14258">
        <ele>848.98</ele>
        <time>2022-08-16T08:41:14Z</time>
      </trkpt>
      <trkpt lat="44.90303" lon="5.14263">
        <ele>851.38</ele>
        <time>2022-08-16T08:41:28Z</time>
      </trkpt>
      <trkpt lat="44.90295" lon="5.1427">
        <ele>854.27</ele>
        <time>2022-08-16T08:41:45Z</time>
      </trkpt>
      <trkpt lat="44.90286" lon="5.14276">
        <ele>857.63</ele>
        <time>2022-08-16T08:42:01Z</time>
      </trkpt>
      <trkpt lat="44.90276" lon="5.14288">
        <ele>860.52</ele>
        <time>2022-08-16T08:42:18Z</time>
      </trkpt>
      <trkpt lat="44.9027" lon="5.14299">
        <ele>861.96</ele>
        <time>2022-08-16T08:42:32Z</time>
      </trkpt>
      <trkpt lat="44.90263" lon="5.14307">
        <ele>865.32</ele>
        <time>2022-08-16T08:42:47Z</time>
      </trkpt>
      <trkpt lat="44.90257" lon="5.14315">
        <ele>867.25</ele>
        <time>2022-08-16T08:42:59Z</time>
      </trkpt>
      <trkpt lat="44.90252" lon="5.14325">
        <ele>870.13</ele>
        <time>2022-08-16T08:43:13Z</time>
      </trkpt>
      <trkpt lat="44.90245" lon="5.14334">
        <ele>873.01</ele>
        <time>2022-08-16T08:43:28Z</time>
      </trkpt>
      <trkpt lat="44.90241" lon="5.14341">
        <ele>874.94</ele>
        <time>2022-08-16T08:43:41Z</time>
      </trkpt>
      <trkpt lat="44.90238" lon="5.14349">
        <ele>877.82</ele>
        <time>2022-08-16T08:43:54Z</time>
      </trkpt>
      <trkpt lat="44.90234" lon="5.14359">
        <ele>879.74</ele>
        <time>2022-08-16T08:44:05Z</time>
      </trkpt>
      <trkpt lat="44.9023" lon="5.14365">
        <ele>881.67</ele>
        <time>2022-08-16T08:44:20Z</time>
      </trkpt>
      <trkpt lat="44.90228" lon="5.14367">
        <ele>885.99</ele>
        <time>2022-08-16T08:52:18Z</time>
      </trkpt>
      <trkpt lat="44.90216" lon="5.14375">
        <ele>888.88</ele>
        <time>2022-08-16T08:52:34Z</time>
      </trkpt>
      <trkpt lat="44.90215" lon="5.14377">
        <ele>888.88</ele>
        <time>2022-08-16T08:52:36Z</time>
      </trkpt>
      <trkpt lat="44.90212" lon="5.14387">
        <ele>892.72</ele>
        <time>2022-08-16T08:52:51Z</time>
      </trkpt>
      <trkpt lat="44.90215" lon="5.14396">
        <ele>895.61</ele>
        <time>2022-08-16T08:53:04Z</time>
      </trkpt>
      <trkpt lat="44.90206" lon="5.14404">
        <ele>898.97</ele>
        <time>2022-08-16T08:53:19Z</time>
      </trkpt>
      <trkpt lat="44.90201" lon="5.14415">
        <ele>901.85</ele>
        <time>2022-08-16T08:53:32Z</time>
      </trkpt>
      <trkpt lat="44.90196" lon="5.14428">
        <ele>904.74</ele>
        <time>2022-08-16T08:53:46Z</time>
      </trkpt>
      <trkpt lat="44.90191" lon="5.14439">
        <ele>907.62</ele>
        <time>2022-08-16T08:53:59Z</time>
      </trkpt>
      <trkpt lat="44.90185" lon="5.14455">
        <ele>910.51</ele>
        <time>2022-08-16T08:54:14Z</time>
      </trkpt>
      <trkpt lat="44.90186" lon="5.14471">
        <ele>912.43</ele>
        <time>2022-08-16T08:54:26Z</time>
      </trkpt>
      <trkpt lat="44.90183" lon="5.14487">
        <ele>914.83</ele>
        <time>2022-08-16T08:54:39Z</time>
      </trkpt>
      <trkpt lat="44.90184" lon="5.14505">
        <ele>917.72</ele>
        <time>2022-08-16T08:54:54Z</time>
      </trkpt>
      <trkpt lat="44.90188" lon="5.14511">
        <ele>920.12</ele>
        <time>2022-08-16T08:55:06Z</time>
      </trkpt>
      <trkpt lat="44.90187" lon="5.14521">
        <ele>922.04</ele>
        <time>2022-08-16T08:55:19Z</time>
      </trkpt>
      <trkpt lat="44.90186" lon="5.14538">
        <ele>924.93</ele>
        <time>2022-08-16T08:55:34Z</time>
      </trkpt>
      <trkpt lat="44.90189" lon="5.14553">
        <ele>926.85</ele>
        <time>2022-08-16T08:55:47Z</time>
      </trkpt>
      <trkpt lat="44.9019" lon="5.14566">
        <ele>929.73</ele>
        <time>2022-08-16T08:56:01Z</time>
      </trkpt>
      <trkpt lat="44.90183" lon="5.14581">
        <ele>932.14</ele>
        <time>2022-08-16T08:56:17Z</time>
      </trkpt>
      <trkpt lat="44.9018" lon="5.14599">
        <ele>935.02</ele>
        <time>2022-08-16T08:56:34Z</time>
      </trkpt>
      <trkpt lat="44.90184" lon="5.14615">
        <ele>938.38</ele>
        <time>2022-08-16T08:56:48Z</time>
      </trkpt>
      <trkpt lat="44.90185" lon="5.14629">
        <ele>940.79</ele>
        <time>2022-08-16T08:57:02Z</time>
      </trkpt>
      <trkpt lat="44.9019" lon="5.14637">
        <ele>944.15</ele>
        <time>2022-08-16T08:57:18Z</time>
      </trkpt>
      <trkpt lat="44.90199" lon="5.14636">
        <ele>947.04</ele>
        <time>2022-08-16T08:57:33Z</time>
      </trkpt>
      <trkpt lat="44.90207" lon="5.14636">
        <ele>949.44</ele>
        <time>2022-08-16T08:57:49Z</time>
      </trkpt>
      <trkpt lat="44.90208" lon="5.14645">
        <ele>952.8</ele>
        <time>2022-08-16T08:58:01Z</time>
      </trkpt>
      <trkpt lat="44.90208" lon="5.14658">
        <ele>955.21</ele>
        <time>2022-08-16T08:58:14Z</time>
      </trkpt>
      <trkpt lat="44.90205" lon="5.14668">
        <ele>958.09</ele>
        <time>2022-08-16T08:58:27Z</time>
      </trkpt>
      <trkpt lat="44.90204" lon="5.14683">
        <ele>960.01</ele>
        <time>2022-08-16T08:58:39Z</time>
      </trkpt>
      <trkpt lat="44.90205" lon="5.14691">
        <ele>961.46</ele>
        <time>2022-08-16T08:58:47Z</time>
      </trkpt>
      <trkpt lat="44.90211" lon="5.14708">
        <ele>964.82</ele>
        <time>2022-08-16T08:59:04Z</time>
      </trkpt>
      <trkpt lat="44.90206" lon="5.14724">
        <ele>967.7</ele>
        <time>2022-08-16T08:59:22Z</time>
      </trkpt>
      <trkpt lat="44.90204" lon="5.14738">
        <ele>971.07</ele>
        <time>2022-08-16T08:59:37Z</time>
      </trkpt>
      <trkpt lat="44.902" lon="5.14751">
        <ele>973.47</ele>
        <time>2022-08-16T08:59:52Z</time>
      </trkpt>
      <trkpt lat="44.90196" lon="5.14761">
        <ele>976.84</ele>
        <time>2022-08-16T09:00:07Z</time>
      </trkpt>
      <trkpt lat="44.90196" lon="5.14776">
        <ele>979.72</ele>
        <time>2022-08-16T09:00:24Z</time>
      </trkpt>
      <trkpt lat="44.90198" lon="5.14791">
        <ele>982.6</ele>
        <time>2022-08-16T09:00:39Z</time>
      </trkpt>
      <trkpt lat="44.90191" lon="5.14796">
        <ele>985.97</ele>
        <time>2022-08-16T09:00:53Z</time>
      </trkpt>
      <trkpt lat="44.90188" lon="5.14811">
        <ele>989.33</ele>
        <time>2022-08-16T09:01:10Z</time>
      </trkpt>
      <trkpt lat="44.90181" lon="5.1482">
        <ele>992.7</ele>
        <time>2022-08-16T09:01:25Z</time>
      </trkpt>
      <trkpt lat="44.90173" lon="5.14828">
        <ele>996.06</ele>
        <time>2022-08-16T09:01:41Z</time>
      </trkpt>
      <trkpt lat="44.90163" lon="5.14829">
        <ele>998.47</ele>
        <time>2022-08-16T09:02:00Z</time>
      </trkpt>
      <trkpt lat="44.90169" lon="5.14832">
        <ele>1001.83</ele>
        <time>2022-08-16T09:02:18Z</time>
      </trkpt>
      <trkpt lat="44.90165" lon="5.14834">
        <ele>1005.2</ele>
        <time>2022-08-16T09:02:32Z</time>
      </trkpt>
      <trkpt lat="44.90159" lon="5.14836">
        <ele>1008.56</ele>
        <time>2022-08-16T09:02:47Z</time>
      </trkpt>
      <trkpt lat="44.90164" lon="5.14841">
        <ele>1024.9</ele>
        <time>2022-08-16T09:04:09Z</time>
      </trkpt>
      <trkpt lat="44.90163" lon="5.1485">
        <ele>1028.27</ele>
        <time>2022-08-16T09:04:24Z</time>
      </trkpt>
      <trkpt lat="44.90155" lon="5.14867">
        <ele>1031.63</ele>
        <time>2022-08-16T09:04:41Z</time>
      </trkpt>
      <trkpt lat="44.90149" lon="5.14883">
        <ele>1034.04</ele>
        <time>2022-08-16T09:04:56Z</time>
      </trkpt>
      <trkpt lat="44.90154" lon="5.14895">
        <ele>1036.44</ele>
        <time>2022-08-16T09:05:10Z</time>
      </trkpt>
      <trkpt lat="44.90157" lon="5.14904">
        <ele>1038.36</ele>
        <time>2022-08-16T09:05:24Z</time>
      </trkpt>
      <trkpt lat="44.90165" lon="5.1491">
        <ele>1040.76</ele>
        <time>2022-08-16T09:10:00Z</time>
      </trkpt>
      <trkpt lat="44.90175" lon="5.14929">
        <ele>1042.69</ele>
        <time>2022-08-16T09:10:15Z</time>
      </trkpt>
      <trkpt lat="44.90185" lon="5.14956">
        <ele>1044.13</ele>
        <time>2022-08-16T09:10:32Z</time>
      </trkpt>
      <trkpt lat="44.90196" lon="5.14983">
        <ele>1046.53</ele>
        <time>2022-08-16T09:10:50Z</time>
      </trkpt>
      <trkpt lat="44.90204" lon="5.14995">
        <ele>1044.61</ele>
        <time>2022-08-16T09:10:59Z</time>
      </trkpt>
      <trkpt lat="44.9022" lon="5.15021">
        <ele>1042.21</ele>
        <time>2022-08-16T09:11:17Z</time>
      </trkpt>
      <trkpt lat="44.90224" lon="5.15055">
        <ele>1040.76</ele>
        <time>2022-08-16T09:11:35Z</time>
      </trkpt>
      <trkpt lat="44.9022" lon="5.15089">
        <ele>1040.28</ele>
        <time>2022-08-16T09:11:53Z</time>
      </trkpt>
      <trkpt lat="44.90205" lon="5.15116">
        <ele>1040.28</ele>
        <time>2022-08-16T09:12:10Z</time>
      </trkpt>
      <trkpt lat="44.90196" lon="5.15148">
        <ele>1040.76</ele>
        <time>2022-08-16T09:12:27Z</time>
      </trkpt>
      <trkpt lat="44.90193" lon="5.15156">
        <ele>1041.73</ele>
        <time>2022-08-16T09:12:31Z</time>
      </trkpt>
      <trkpt lat="44.90186" lon="5.15179">
        <ele>1040.28</ele>
        <time>2022-08-16T09:12:44Z</time>
      </trkpt>
      <trkpt lat="44.90169" lon="5.15206">
        <ele>1038.84</ele>
        <time>2022-08-16T09:13:02Z</time>
      </trkpt>
      <trkpt lat="44.90151" lon="5.15233">
        <ele>1038.36</ele>
        <time>2022-08-16T09:13:21Z</time>
      </trkpt>
      <trkpt lat="44.90136" lon="5.15263">
        <ele>1036.92</ele>
        <time>2022-08-16T09:13:40Z</time>
      </trkpt>
      <trkpt lat="44.9013" lon="5.15295">
        <ele>1035</ele>
        <time>2022-08-16T09:13:57Z</time>
      </trkpt>
      <trkpt lat="44.90125" lon="5.15327">
        <ele>1033.55</ele>
        <time>2022-08-16T09:14:14Z</time>
      </trkpt>
      <trkpt lat="44.90113" lon="5.15368">
        <ele>1032.59</ele>
        <time>2022-08-16T09:14:36Z</time>
      </trkpt>
      <trkpt lat="44.90102" lon="5.15396">
        <ele>1031.15</ele>
        <time>2022-08-16T09:14:53Z</time>
      </trkpt>
      <trkpt lat="44.90085" lon="5.15419">
        <ele>1029.71</ele>
        <time>2022-08-16T09:15:12Z</time>
      </trkpt>
      <trkpt lat="44.90084" lon="5.15447">
        <ele>1028.27</ele>
        <time>2022-08-16T09:15:29Z</time>
      </trkpt>
      <trkpt lat="44.90088" lon="5.15464">
        <ele>1028.75</ele>
        <time>2022-08-16T09:15:46Z</time>
      </trkpt>
      <trkpt lat="44.9009" lon="5.15473">
        <ele>1028.27</ele>
        <time>2022-08-16T09:16:00Z</time>
      </trkpt>
      <trkpt lat="44.9009" lon="5.15478">
        <ele>1028.27</ele>
        <time>2022-08-16T09:16:04Z</time>
      </trkpt>
      <trkpt lat="44.90093" lon="5.15499">
        <ele>1025.38</ele>
        <time>2022-08-16T09:16:19Z</time>
      </trkpt>
      <trkpt lat="44.90094" lon="5.15526">
        <ele>1024.42</ele>
        <time>2022-08-16T09:16:34Z</time>
      </trkpt>
      <trkpt lat="44.90094" lon="5.15538">
        <ele>1023.94</ele>
        <time>2022-08-16T09:16:40Z</time>
      </trkpt>
      <trkpt lat="44.90096" lon="5.15552">
        <ele>1023.46</ele>
        <time>2022-08-16T09:16:47Z</time>
      </trkpt>
      <trkpt lat="44.90106" lon="5.15577">
        <ele>1021.06</ele>
        <time>2022-08-16T09:17:04Z</time>
      </trkpt>
      <trkpt lat="44.90107" lon="5.1558">
        <ele>1020.58</ele>
        <time>2022-08-16T09:17:06Z</time>
      </trkpt>
      <trkpt lat="44.90104" lon="5.15621">
        <ele>1020.1</ele>
        <time>2022-08-16T09:17:26Z</time>
      </trkpt>
      <trkpt lat="44.901" lon="5.15654">
        <ele>1019.13</ele>
        <time>2022-08-16T09:17:43Z</time>
      </trkpt>
      <trkpt lat="44.90102" lon="5.15669">
        <ele>1017.69</ele>
        <time>2022-08-16T09:17:53Z</time>
      </trkpt>
      <trkpt lat="44.90107" lon="5.15674">
        <ele>1017.21</ele>
        <time>2022-08-16T09:17:58Z</time>
      </trkpt>
      <trkpt lat="44.90124" lon="5.15686">
        <ele>1016.25</ele>
        <time>2022-08-16T09:18:13Z</time>
      </trkpt>
      <trkpt lat="44.90146" lon="5.15711">
        <ele>1016.73</ele>
        <time>2022-08-16T09:18:32Z</time>
      </trkpt>
      <trkpt lat="44.90163" lon="5.15741">
        <ele>1016.73</ele>
        <time>2022-08-16T09:18:51Z</time>
      </trkpt>
      <trkpt lat="44.90184" lon="5.15771">
        <ele>1016.73</ele>
        <time>2022-08-16T09:19:12Z</time>
      </trkpt>
      <trkpt lat="44.90203" lon="5.15794">
        <ele>1017.69</ele>
        <time>2022-08-16T09:19:30Z</time>
      </trkpt>
      <trkpt lat="44.90223" lon="5.15808">
        <ele>1019.13</ele>
        <time>2022-08-16T09:19:47Z</time>
      </trkpt>
      <trkpt lat="44.90247" lon="5.15817">
        <ele>1021.54</ele>
        <time>2022-08-16T09:20:05Z</time>
      </trkpt>
      <trkpt lat="44.90268" lon="5.1583">
        <ele>1020.58</ele>
        <time>2022-08-16T09:20:23Z</time>
      </trkpt>
      <trkpt lat="44.9027" lon="5.15832">
        <ele>1020.58</ele>
        <time>2022-08-16T09:20:29Z</time>
      </trkpt>
      <trkpt lat="44.90277" lon="5.15866">
        <ele>1020.58</ele>
        <time>2022-08-16T09:20:47Z</time>
      </trkpt>
      <trkpt lat="44.90273" lon="5.15894">
        <ele>1022.98</ele>
        <time>2022-08-16T09:21:03Z</time>
      </trkpt>
      <trkpt lat="44.90265" lon="5.15922">
        <ele>1023.46</ele>
        <time>2022-08-16T09:21:19Z</time>
      </trkpt>
      <trkpt lat="44.90251" lon="5.15942">
        <ele>1021.54</ele>
        <time>2022-08-16T09:21:33Z</time>
      </trkpt>
      <trkpt lat="44.90238" lon="5.15958">
        <ele>1021.54</ele>
        <time>2022-08-16T09:21:46Z</time>
      </trkpt>
      <trkpt lat="44.90228" lon="5.15975">
        <ele>1021.06</ele>
        <time>2022-08-16T09:21:57Z</time>
      </trkpt>
      <trkpt lat="44.90226" lon="5.15984">
        <ele>1021.06</ele>
        <time>2022-08-16T09:22:02Z</time>
      </trkpt>
      <trkpt lat="44.90224" lon="5.15995">
        <ele>1021.06</ele>
        <time>2022-08-16T09:22:10Z</time>
      </trkpt>
      <trkpt lat="44.90225" lon="5.16004">
        <ele>1021.06</ele>
        <time>2022-08-16T09:22:16Z</time>
      </trkpt>
      <trkpt lat="44.90229" lon="5.16031">
        <ele>1021.06</ele>
        <time>2022-08-16T09:22:32Z</time>
      </trkpt>
      <trkpt lat="44.90233" lon="5.16037">
        <ele>1021.06</ele>
        <time>2022-08-16T09:22:36Z</time>
      </trkpt>
      <trkpt lat="44.90243" lon="5.1604">
        <ele>1021.06</ele>
        <time>2022-08-16T09:22:45Z</time>
      </trkpt>
      <trkpt lat="44.90248" lon="5.16041">
        <ele>1021.06</ele>
        <time>2022-08-16T09:22:49Z</time>
      </trkpt>
      <trkpt lat="44.9026" lon="5.16052">
        <ele>1021.06</ele>
        <time>2022-08-16T09:23:03Z</time>
      </trkpt>
      <trkpt lat="44.90263" lon="5.16063">
        <ele>1023.94</ele>
        <time>2022-08-16T09:23:12Z</time>
      </trkpt>
      <trkpt lat="44.90278" lon="5.1608">
        <ele>1024.9</ele>
        <time>2022-08-16T09:23:26Z</time>
      </trkpt>
      <trkpt lat="44.90294" lon="5.161">
        <ele>1025.86</ele>
        <time>2022-08-16T09:23:43Z</time>
      </trkpt>
      <trkpt lat="44.90304" lon="5.16102">
        <ele>1027.31</ele>
        <time>2022-08-16T09:23:56Z</time>
      </trkpt>
      <trkpt lat="44.90318" lon="5.16097">
        <ele>1027.31</ele>
        <time>2022-08-16T09:24:09Z</time>
      </trkpt>
      <trkpt lat="44.90327" lon="5.16113">
        <ele>1027.31</ele>
        <time>2022-08-16T09:24:21Z</time>
      </trkpt>
      <trkpt lat="44.90344" lon="5.16142">
        <ele>1027.79</ele>
        <time>2022-08-16T09:24:40Z</time>
      </trkpt>
      <trkpt lat="44.90356" lon="5.1617">
        <ele>1029.23</ele>
        <time>2022-08-16T09:24:57Z</time>
      </trkpt>
      <trkpt lat="44.90371" lon="5.16189">
        <ele>1030.19</ele>
        <time>2022-08-16T09:25:12Z</time>
      </trkpt>
      <trkpt lat="44.90388" lon="5.16208">
        <ele>1032.11</ele>
        <time>2022-08-16T09:25:29Z</time>
      </trkpt>
      <trkpt lat="44.90396" lon="5.16216">
        <ele>1032.11</ele>
        <time>2022-08-16T09:25:36Z</time>
      </trkpt>
      <trkpt lat="44.90407" lon="5.1623">
        <ele>1032.59</ele>
        <time>2022-08-16T09:25:49Z</time>
      </trkpt>
      <trkpt lat="44.9041" lon="5.16234">
        <ele>1032.59</ele>
        <time>2022-08-16T09:25:53Z</time>
      </trkpt>
      <trkpt lat="44.90419" lon="5.16244">
        <ele>1033.07</ele>
        <time>2022-08-16T09:26:03Z</time>
      </trkpt>
      <trkpt lat="44.90424" lon="5.1625">
        <ele>1033.07</ele>
        <time>2022-08-16T09:26:07Z</time>
      </trkpt>
      <trkpt lat="44.90441" lon="5.16271">
        <ele>1033.55</ele>
        <time>2022-08-16T09:26:22Z</time>
      </trkpt>
      <trkpt lat="44.90451" lon="5.16299">
        <ele>1033.55</ele>
        <time>2022-08-16T09:26:38Z</time>
      </trkpt>
      <trkpt lat="44.90458" lon="5.16333">
        <ele>1035</ele>
        <time>2022-08-16T09:26:55Z</time>
      </trkpt>
      <trkpt lat="44.90455" lon="5.16354">
        <ele>1035.96</ele>
        <time>2022-08-16T09:27:11Z</time>
      </trkpt>
      <trkpt lat="44.90452" lon="5.16361">
        <ele>1036.44</ele>
        <time>2022-08-16T09:27:16Z</time>
      </trkpt>
      <trkpt lat="44.90448" lon="5.16378">
        <ele>1036.92</ele>
        <time>2022-08-16T09:27:24Z</time>
      </trkpt>
      <trkpt lat="44.90439" lon="5.16396">
        <ele>1038.84</ele>
        <time>2022-08-16T09:27:39Z</time>
      </trkpt>
      <trkpt lat="44.90431" lon="5.16405">
        <ele>1041.73</ele>
        <time>2022-08-16T09:27:54Z</time>
      </trkpt>
      <trkpt lat="44.90432" lon="5.16419">
        <ele>1044.13</ele>
        <time>2022-08-16T09:28:07Z</time>
      </trkpt>
      <trkpt lat="44.90433" lon="5.16438">
        <ele>1047.01</ele>
        <time>2022-08-16T09:28:23Z</time>
      </trkpt>
      <trkpt lat="44.90435" lon="5.16454">
        <ele>1049.9</ele>
        <time>2022-08-16T09:28:38Z</time>
      </trkpt>
      <trkpt lat="44.90433" lon="5.16471">
        <ele>1052.78</ele>
        <time>2022-08-16T09:28:51Z</time>
      </trkpt>
      <trkpt lat="44.90432" lon="5.16482">
        <ele>1054.22</ele>
        <time>2022-08-16T09:29:00Z</time>
      </trkpt>
      <trkpt lat="44.90434" lon="5.16488">
        <ele>1055.18</ele>
        <time>2022-08-16T09:29:04Z</time>
      </trkpt>
      <trkpt lat="44.90443" lon="5.165">
        <ele>1057.59</ele>
        <time>2022-08-16T09:29:16Z</time>
      </trkpt>
      <trkpt lat="44.9045" lon="5.16514">
        <ele>1059.51</ele>
        <time>2022-08-16T09:29:32Z</time>
      </trkpt>
      <trkpt lat="44.90455" lon="5.16527">
        <ele>1061.43</ele>
        <time>2022-08-16T09:29:45Z</time>
      </trkpt>
      <trkpt lat="44.90463" lon="5.1654">
        <ele>1064.32</ele>
        <time>2022-08-16T09:29:59Z</time>
      </trkpt>
      <trkpt lat="44.90467" lon="5.16552">
        <ele>1066.72</ele>
        <time>2022-08-16T09:30:12Z</time>
      </trkpt>
      <trkpt lat="44.90479" lon="5.16564">
        <ele>1066.72</ele>
        <time>2022-08-16T09:30:24Z</time>
      </trkpt>
      <trkpt lat="44.90489" lon="5.16574">
        <ele>1069.12</ele>
        <time>2022-08-16T09:30:38Z</time>
      </trkpt>
      <trkpt lat="44.90489" lon="5.16587">
        <ele>1072.01</ele>
        <time>2022-08-16T09:30:52Z</time>
      </trkpt>
      <trkpt lat="44.90493" lon="5.16606">
        <ele>1073.45</ele>
        <time>2022-08-16T09:31:06Z</time>
      </trkpt>
      <trkpt lat="44.90494" lon="5.16611">
        <ele>1073.93</ele>
        <time>2022-08-16T09:31:09Z</time>
      </trkpt>
      <trkpt lat="44.90494" lon="5.16615">
        <ele>1074.89</ele>
        <time>2022-08-16T09:31:11Z</time>
      </trkpt>
      <trkpt lat="44.90493" lon="5.16638">
        <ele>1075.85</ele>
        <time>2022-08-16T09:31:26Z</time>
      </trkpt>
      <trkpt lat="44.9049" lon="5.16657">
        <ele>1076.81</ele>
        <time>2022-08-16T09:31:39Z</time>
      </trkpt>
      <trkpt lat="44.9049" lon="5.16678">
        <ele>1079.22</ele>
        <time>2022-08-16T09:31:53Z</time>
      </trkpt>
      <trkpt lat="44.90487" lon="5.16695">
        <ele>1081.14</ele>
        <time>2022-08-16T09:32:07Z</time>
      </trkpt>
      <trkpt lat="44.90476" lon="5.16709">
        <ele>1084.5</ele>
        <time>2022-08-16T09:32:23Z</time>
      </trkpt>
      <trkpt lat="44.90473" lon="5.16728">
        <ele>1086.91</ele>
        <time>2022-08-16T09:32:37Z</time>
      </trkpt>
      <trkpt lat="44.90477" lon="5.16736">
        <ele>1088.83</ele>
        <time>2022-08-16T09:32:52Z</time>
      </trkpt>
      <trkpt lat="44.90482" lon="5.16743">
        <ele>1092.2</ele>
        <time>2022-08-16T09:33:11Z</time>
      </trkpt>
      <trkpt lat="44.90495" lon="5.16746">
        <ele>1095.56</ele>
        <time>2022-08-16T09:33:29Z</time>
      </trkpt>
      <trkpt lat="44.90504" lon="5.1675">
        <ele>1097.48</ele>
        <time>2022-08-16T09:33:41Z</time>
      </trkpt>
      <trkpt lat="44.90513" lon="5.16761">
        <ele>1099.4</ele>
        <time>2022-08-16T09:33:54Z</time>
      </trkpt>
      <trkpt lat="44.90514" lon="5.16777">
        <ele>1099.89</ele>
        <time>2022-08-16T09:34:08Z</time>
      </trkpt>
      <trkpt lat="44.90515" lon="5.16794">
        <ele>1100.37</ele>
        <time>2022-08-16T09:34:21Z</time>
      </trkpt>
      <trkpt lat="44.90512" lon="5.16806">
        <ele>1098.92</ele>
        <time>2022-08-16T09:34:31Z</time>
      </trkpt>
      <trkpt lat="44.90511" lon="5.16823">
        <ele>1096.52</ele>
        <time>2022-08-16T09:34:43Z</time>
      </trkpt>
      <trkpt lat="44.90512" lon="5.16838">
        <ele>1095.56</ele>
        <time>2022-08-16T09:34:53Z</time>
      </trkpt>
      <trkpt lat="44.90514" lon="5.16846">
        <ele>1094.6</ele>
        <time>2022-08-16T09:34:58Z</time>
      </trkpt>
      <trkpt lat="44.90525" lon="5.16879">
        <ele>1093.16</ele>
        <time>2022-08-16T09:35:15Z</time>
      </trkpt>
      <trkpt lat="44.90527" lon="5.16887">
        <ele>1092.68</ele>
        <time>2022-08-16T09:35:20Z</time>
      </trkpt>
      <trkpt lat="44.90531" lon="5.16916">
        <ele>1092.2</ele>
        <time>2022-08-16T09:35:36Z</time>
      </trkpt>
      <trkpt lat="44.90542" lon="5.16935">
        <ele>1092.2</ele>
        <time>2022-08-16T09:35:50Z</time>
      </trkpt>
      <trkpt lat="44.90547" lon="5.16946">
        <ele>1093.64</ele>
        <time>2022-08-16T09:35:56Z</time>
      </trkpt>
      <trkpt lat="44.90557" lon="5.16973">
        <ele>1093.64</ele>
        <time>2022-08-16T09:36:11Z</time>
      </trkpt>
      <trkpt lat="44.90561" lon="5.17002">
        <ele>1095.08</ele>
        <time>2022-08-16T09:36:26Z</time>
      </trkpt>
      <trkpt lat="44.9056" lon="5.17034">
        <ele>1096.04</ele>
        <time>2022-08-16T09:36:43Z</time>
      </trkpt>
      <trkpt lat="44.90565" lon="5.17057">
        <ele>1099.4</ele>
        <time>2022-08-16T09:36:58Z</time>
      </trkpt>
      <trkpt lat="44.90574" lon="5.17087">
        <ele>1099.4</ele>
        <time>2022-08-16T09:37:16Z</time>
      </trkpt>
      <trkpt lat="44.90581" lon="5.1712">
        <ele>1097.96</ele>
        <time>2022-08-16T09:37:34Z</time>
      </trkpt>
      <trkpt lat="44.90587" lon="5.17154">
        <ele>1098.44</ele>
        <time>2022-08-16T09:37:52Z</time>
      </trkpt>
      <trkpt lat="44.90599" lon="5.17187">
        <ele>1098.44</ele>
        <time>2022-08-16T09:38:10Z</time>
      </trkpt>
      <trkpt lat="44.90614" lon="5.1722">
        <ele>1097.96</ele>
        <time>2022-08-16T09:38:30Z</time>
      </trkpt>
      <trkpt lat="44.90619" lon="5.1723">
        <ele>1098.92</ele>
        <time>2022-08-16T09:38:36Z</time>
      </trkpt>
      <trkpt lat="44.90636" lon="5.1725">
        <ele>1097.96</ele>
        <time>2022-08-16T09:38:53Z</time>
      </trkpt>
      <trkpt lat="44.90646" lon="5.17269">
        <ele>1097.96</ele>
        <time>2022-08-16T09:39:09Z</time>
      </trkpt>
      <trkpt lat="44.90648" lon="5.1729">
        <ele>1098.44</ele>
        <time>2022-08-16T09:39:25Z</time>
      </trkpt>
      <trkpt lat="44.90648" lon="5.1731">
        <ele>1098.44</ele>
        <time>2022-08-16T09:39:35Z</time>
      </trkpt>
      <trkpt lat="44.90648" lon="5.17322">
        <ele>1099.4</ele>
        <time>2022-08-16T09:39:40Z</time>
      </trkpt>
      <trkpt lat="44.90638" lon="5.1735">
        <ele>1100.37</ele>
        <time>2022-08-16T09:39:54Z</time>
      </trkpt>
      <trkpt lat="44.90637" lon="5.17378">
        <ele>1100.37</ele>
        <time>2022-08-16T09:40:09Z</time>
      </trkpt>
      <trkpt lat="44.90637" lon="5.17379">
        <ele>1100.37</ele>
        <time>2022-08-16T09:40:10Z</time>
      </trkpt>
      <trkpt lat="44.90636" lon="5.17396">
        <ele>1099.4</ele>
        <time>2022-08-16T09:40:20Z</time>
      </trkpt>
      <trkpt lat="44.90635" lon="5.17403">
        <ele>1098.92</ele>
        <time>2022-08-16T09:40:24Z</time>
      </trkpt>
      <trkpt lat="44.90638" lon="5.17426">
        <ele>1097</ele>
        <time>2022-08-16T09:40:37Z</time>
      </trkpt>
      <trkpt lat="44.9065" lon="5.17453">
        <ele>1094.12</ele>
        <time>2022-08-16T09:40:54Z</time>
      </trkpt>
      <trkpt lat="44.9066" lon="5.17475">
        <ele>1090.27</ele>
        <time>2022-08-16T09:41:07Z</time>
      </trkpt>
      <trkpt lat="44.90669" lon="5.17503">
        <ele>1087.87</ele>
        <time>2022-08-16T09:41:22Z</time>
      </trkpt>
      <trkpt lat="44.90679" lon="5.17527">
        <ele>1086.43</ele>
        <time>2022-08-16T09:41:37Z</time>
      </trkpt>
      <trkpt lat="44.90688" lon="5.17551">
        <ele>1085.47</ele>
        <time>2022-08-16T09:41:52Z</time>
      </trkpt>
      <trkpt lat="44.90689" lon="5.17553">
        <ele>1085.47</ele>
        <time>2022-08-16T09:41:53Z</time>
      </trkpt>
      <trkpt lat="44.90698" lon="5.17576">
        <ele>1084.02</ele>
        <time>2022-08-16T09:42:07Z</time>
      </trkpt>
      <trkpt lat="44.90699" lon="5.17582">
        <ele>1083.54</ele>
        <time>2022-08-16T09:42:11Z</time>
      </trkpt>
      <trkpt lat="44.907" lon="5.17589">
        <ele>1083.06</ele>
        <time>2022-08-16T09:42:15Z</time>
      </trkpt>
      <trkpt lat="44.90705" lon="5.17599">
        <ele>1082.1</ele>
        <time>2022-08-16T09:42:21Z</time>
      </trkpt>
      <trkpt lat="44.90709" lon="5.1762">
        <ele>1079.7</ele>
        <time>2022-08-16T09:42:34Z</time>
      </trkpt>
      <trkpt lat="44.90712" lon="5.17647">
        <ele>1077.29</ele>
        <time>2022-08-16T09:42:49Z</time>
      </trkpt>
      <trkpt lat="44.9071" lon="5.17678">
        <ele>1074.41</ele>
        <time>2022-08-16T09:43:07Z</time>
      </trkpt>
      <trkpt lat="44.9071" lon="5.17686">
        <ele>1073.93</ele>
        <time>2022-08-16T09:43:19Z</time>
      </trkpt>
      <trkpt lat="44.90709" lon="5.17701">
        <ele>1072.49</ele>
        <time>2022-08-16T09:43:27Z</time>
      </trkpt>
      <trkpt lat="44.90708" lon="5.17707">
        <ele>1072.01</ele>
        <time>2022-08-16T09:43:31Z</time>
      </trkpt>
      <trkpt lat="44.90703" lon="5.17747">
        <ele>1071.53</ele>
        <time>2022-08-16T09:43:51Z</time>
      </trkpt>
      <trkpt lat="44.90697" lon="5.17779">
        <ele>1071.53</ele>
        <time>2022-08-16T09:44:08Z</time>
      </trkpt>
      <trkpt lat="44.9069" lon="5.1781">
        <ele>1071.53</ele>
        <time>2022-08-16T09:44:25Z</time>
      </trkpt>
      <trkpt lat="44.90687" lon="5.17819">
        <ele>1071.53</ele>
        <time>2022-08-16T09:44:38Z</time>
      </trkpt>
      <trkpt lat="44.90689" lon="5.17818">
        <ele>1071.53</ele>
        <time>2022-08-16T09:44:59Z</time>
      </trkpt>
      <trkpt lat="44.90692" lon="5.17815">
        <ele>1071.53</ele>
        <time>2022-08-16T09:45:04Z</time>
      </trkpt>
      <trkpt lat="44.90695" lon="5.17813">
        <ele>1073.45</ele>
        <time>2022-08-16T09:45:08Z</time>
      </trkpt>
      <trkpt lat="44.907" lon="5.17812">
        <ele>1074.41</ele>
        <time>2022-08-16T09:45:15Z</time>
      </trkpt>
      <trkpt lat="44.90706" lon="5.17812">
        <ele>1075.37</ele>
        <time>2022-08-16T09:45:21Z</time>
      </trkpt>
      <trkpt lat="44.90717" lon="5.17821">
        <ele>1076.33</ele>
        <time>2022-08-16T09:45:35Z</time>
      </trkpt>
      <trkpt lat="44.90718" lon="5.17828">
        <ele>1078.26</ele>
        <time>2022-08-16T09:45:45Z</time>
      </trkpt>
      <trkpt lat="44.90731" lon="5.17842">
        <ele>1079.22</ele>
        <time>2022-08-16T09:46:00Z</time>
      </trkpt>
      <trkpt lat="44.90738" lon="5.17852">
        <ele>1080.18</ele>
        <time>2022-08-16T09:46:08Z</time>
      </trkpt>
      <trkpt lat="44.90744" lon="5.17862">
        <ele>1080.66</ele>
        <time>2022-08-16T09:46:19Z</time>
      </trkpt>
      <trkpt lat="44.90746" lon="5.17865">
        <ele>1081.62</ele>
        <time>2022-08-16T09:46:31Z</time>
      </trkpt>
      <trkpt lat="44.90751" lon="5.17867">
        <ele>1081.62</ele>
        <time>2022-08-16T09:46:46Z</time>
      </trkpt>
      <trkpt lat="44.90753" lon="5.17869">
        <ele>1081.62</ele>
        <time>2022-08-16T09:47:01Z</time>
      </trkpt>
      <trkpt lat="44.90756" lon="5.17868">
        <ele>1081.62</ele>
        <time>2022-08-16T09:47:14Z</time>
      </trkpt>
      <trkpt lat="44.90762" lon="5.1787">
        <ele>1081.62</ele>
        <time>2022-08-16T09:47:26Z</time>
      </trkpt>
      <trkpt lat="44.90764" lon="5.17871">
        <ele>1082.1</ele>
        <time>2022-08-16T09:47:37Z</time>
      </trkpt>
      <trkpt lat="44.90767" lon="5.17872">
        <ele>1082.1</ele>
        <time>2022-08-16T09:47:43Z</time>
      </trkpt>
      <trkpt lat="44.90774" lon="5.17883">
        <ele>1083.54</ele>
        <time>2022-08-16T09:47:54Z</time>
      </trkpt>
      <trkpt lat="44.90774" lon="5.17901">
        <ele>1085.47</ele>
        <time>2022-08-16T09:48:09Z</time>
      </trkpt>
      <trkpt lat="44.90776" lon="5.17913">
        <ele>1088.35</ele>
        <time>2022-08-16T09:48:23Z</time>
      </trkpt>
      <trkpt lat="44.90782" lon="5.17926">
        <ele>1090.75</ele>
        <time>2022-08-16T09:48:38Z</time>
      </trkpt>
      <trkpt lat="44.90784" lon="5.17942">
        <ele>1094.12</ele>
        <time>2022-08-16T09:48:50Z</time>
      </trkpt>
      <trkpt lat="44.90787" lon="5.17952">
        <ele>1095.56</ele>
        <time>2022-08-16T09:49:05Z</time>
      </trkpt>
      <trkpt lat="44.90794" lon="5.17963">
        <ele>1096.52</ele>
        <time>2022-08-16T09:49:21Z</time>
      </trkpt>
      <trkpt lat="44.90797" lon="5.17977">
        <ele>1097.96</ele>
        <time>2022-08-16T09:49:37Z</time>
      </trkpt>
      <trkpt lat="44.90805" lon="5.17986">
        <ele>1099.4</ele>
        <time>2022-08-16T09:49:49Z</time>
      </trkpt>
      <trkpt lat="44.90814" lon="5.17993">
        <ele>1101.33</ele>
        <time>2022-08-16T09:50:03Z</time>
      </trkpt>
      <trkpt lat="44.90825" lon="5.17995">
        <ele>1103.73</ele>
        <time>2022-08-16T09:50:15Z</time>
      </trkpt>
      <trkpt lat="44.90835" lon="5.17997">
        <ele>1105.17</ele>
        <time>2022-08-16T09:50:28Z</time>
      </trkpt>
      <trkpt lat="44.90847" lon="5.17992">
        <ele>1108.54</ele>
        <time>2022-08-16T09:50:42Z</time>
      </trkpt>
      <trkpt lat="44.9086" lon="5.17996">
        <ele>1111.9</ele>
        <time>2022-08-16T09:50:58Z</time>
      </trkpt>
      <trkpt lat="44.90871" lon="5.18">
        <ele>1115.27</ele>
        <time>2022-08-16T09:51:12Z</time>
      </trkpt>
      <trkpt lat="44.90879" lon="5.18005">
        <ele>1116.71</ele>
        <time>2022-08-16T09:51:27Z</time>
      </trkpt>
      <trkpt lat="44.90885" lon="5.18004">
        <ele>1118.63</ele>
        <time>2022-08-16T09:51:41Z</time>
      </trkpt>
      <trkpt lat="44.90893" lon="5.18005">
        <ele>1120.07</ele>
        <time>2022-08-16T09:51:52Z</time>
      </trkpt>
      <trkpt lat="44.90906" lon="5.18007">
        <ele>1122</ele>
        <time>2022-08-16T09:52:05Z</time>
      </trkpt>
      <trkpt lat="44.90918" lon="5.18007">
        <ele>1123.92</ele>
        <time>2022-08-16T09:52:20Z</time>
      </trkpt>
      <trkpt lat="44.90927" lon="5.18004">
        <ele>1123.92</ele>
        <time>2022-08-16T09:52:28Z</time>
      </trkpt>
      <trkpt lat="44.90941" lon="5.18003">
        <ele>1125.36</ele>
        <time>2022-08-16T09:52:42Z</time>
      </trkpt>
      <trkpt lat="44.90947" lon="5.18001">
        <ele>1126.32</ele>
        <time>2022-08-16T09:52:57Z</time>
      </trkpt>
      <trkpt lat="44.90949" lon="5.18008">
        <ele>1127.28</ele>
        <time>2022-08-16T09:53:08Z</time>
      </trkpt>
      <trkpt lat="44.90952" lon="5.18012">
        <ele>1127.76</ele>
        <time>2022-08-16T09:53:11Z</time>
      </trkpt>
      <trkpt lat="44.90964" lon="5.18026">
        <ele>1129.69</ele>
        <time>2022-08-16T09:53:24Z</time>
      </trkpt>
      <trkpt lat="44.90965" lon="5.18027">
        <ele>1130.17</ele>
        <time>2022-08-16T09:53:25Z</time>
      </trkpt>
      <trkpt lat="44.90967" lon="5.18028">
        <ele>1129.69</ele>
        <time>2022-08-16T09:53:27Z</time>
      </trkpt>
      <trkpt lat="44.90984" lon="5.1803">
        <ele>1131.13</ele>
        <time>2022-08-16T09:53:41Z</time>
      </trkpt>
      <trkpt lat="44.91004" lon="5.1803">
        <ele>1131.61</ele>
        <time>2022-08-16T09:53:55Z</time>
      </trkpt>
      <trkpt lat="44.91024" lon="5.18034">
        <ele>1132.57</ele>
        <time>2022-08-16T09:54:10Z</time>
      </trkpt>
      <trkpt lat="44.9104" lon="5.18038">
        <ele>1133.05</ele>
        <time>2022-08-16T09:54:25Z</time>
      </trkpt>
      <trkpt lat="44.91059" lon="5.18043">
        <ele>1134.01</ele>
        <time>2022-08-16T09:54:39Z</time>
      </trkpt>
      <trkpt lat="44.91085" lon="5.18039">
        <ele>1134.01</ele>
        <time>2022-08-16T09:54:55Z</time>
      </trkpt>
      <trkpt lat="44.91106" lon="5.18031">
        <ele>1134.01</ele>
        <time>2022-08-16T09:55:10Z</time>
      </trkpt>
      <trkpt lat="44.91119" lon="5.18024">
        <ele>1134.01</ele>
        <time>2022-08-16T09:55:21Z</time>
      </trkpt>
      <trkpt lat="44.91128" lon="5.1801">
        <ele>1136.9</ele>
        <time>2022-08-16T09:55:32Z</time>
      </trkpt>
      <trkpt lat="44.91133" lon="5.18002">
        <ele>1138.34</ele>
        <time>2022-08-16T09:55:38Z</time>
      </trkpt>
      <trkpt lat="44.91144" lon="5.17992">
        <ele>1140.26</ele>
        <time>2022-08-16T09:55:52Z</time>
      </trkpt>
      <trkpt lat="44.91151" lon="5.17986">
        <ele>1143.63</ele>
        <time>2022-08-16T09:56:02Z</time>
      </trkpt>
      <trkpt lat="44.91159" lon="5.17975">
        <ele>1145.55</ele>
        <time>2022-08-16T09:56:16Z</time>
      </trkpt>
      <trkpt lat="44.91172" lon="5.17957">
        <ele>1147.47</ele>
        <time>2022-08-16T09:56:29Z</time>
      </trkpt>
      <trkpt lat="44.91184" lon="5.17939">
        <ele>1150.35</ele>
        <time>2022-08-16T09:56:43Z</time>
      </trkpt>
      <trkpt lat="44.91197" lon="5.17922">
        <ele>1152.28</ele>
        <time>2022-08-16T09:56:59Z</time>
      </trkpt>
      <trkpt lat="44.91206" lon="5.17913">
        <ele>1154.68</ele>
        <time>2022-08-16T09:57:10Z</time>
      </trkpt>
      <trkpt lat="44.91218" lon="5.17897">
        <ele>1157.56</ele>
        <time>2022-08-16T09:57:24Z</time>
      </trkpt>
      <trkpt lat="44.91224" lon="5.17891">
        <ele>1159.01</ele>
        <time>2022-08-16T09:57:31Z</time>
      </trkpt>
      <trkpt lat="44.91231" lon="5.17883">
        <ele>1160.93</ele>
        <time>2022-08-16T09:57:39Z</time>
      </trkpt>
      <trkpt lat="44.91244" lon="5.17873">
        <ele>1163.33</ele>
        <time>2022-08-16T09:57:53Z</time>
      </trkpt>
      <trkpt lat="44.91248" lon="5.17871">
        <ele>1164.77</ele>
        <time>2022-08-16T09:57:57Z</time>
      </trkpt>
      <trkpt lat="44.91251" lon="5.17869">
        <ele>1163.33</ele>
        <time>2022-08-16T09:58:00Z</time>
      </trkpt>
      <trkpt lat="44.91256" lon="5.17867">
        <ele>1164.77</ele>
        <time>2022-08-16T09:58:05Z</time>
      </trkpt>
      <trkpt lat="44.91273" lon="5.17857">
        <ele>1166.7</ele>
        <time>2022-08-16T09:58:20Z</time>
      </trkpt>
      <trkpt lat="44.91287" lon="5.17845">
        <ele>1168.62</ele>
        <time>2022-08-16T09:58:35Z</time>
      </trkpt>
      <trkpt lat="44.9129" lon="5.17841">
        <ele>1170.06</ele>
        <time>2022-08-16T09:58:39Z</time>
      </trkpt>
      <trkpt lat="44.91297" lon="5.17832">
        <ele>1171.02</ele>
        <time>2022-08-16T09:58:47Z</time>
      </trkpt>
      <trkpt lat="44.913" lon="5.1783">
        <ele>1170.06</ele>
        <time>2022-08-16T09:59:00Z</time>
      </trkpt>
      <trkpt lat="44.91303" lon="5.17827">
        <ele>1169.1</ele>
        <time>2022-08-16T09:59:11Z</time>
      </trkpt>
      <trkpt lat="44.91304" lon="5.17825">
        <ele>1170.54</ele>
        <time>2022-08-16T09:59:13Z</time>
      </trkpt>
      <trkpt lat="44.91308" lon="5.17818">
        <ele>1172.47</ele>
        <time>2022-08-16T09:59:24Z</time>
      </trkpt>
      <trkpt lat="44.91308" lon="5.17815">
        <ele>1173.43</ele>
        <time>2022-08-16T09:59:37Z</time>
      </trkpt>
      <trkpt lat="44.9131" lon="5.17814">
        <ele>1171.98</ele>
        <time>2022-08-16T09:59:39Z</time>
      </trkpt>
      <trkpt lat="44.9132" lon="5.17808">
        <ele>1171.98</ele>
        <time>2022-08-16T09:59:48Z</time>
      </trkpt>
      <trkpt lat="44.91336" lon="5.17801">
        <ele>1171.98</ele>
        <time>2022-08-16T10:00:01Z</time>
      </trkpt>
      <trkpt lat="44.91352" lon="5.17799">
        <ele>1171.5</ele>
        <time>2022-08-16T10:00:13Z</time>
      </trkpt>
      <trkpt lat="44.91367" lon="5.17799">
        <ele>1171.5</ele>
        <time>2022-08-16T10:00:25Z</time>
      </trkpt>
      <trkpt lat="44.91382" lon="5.17798">
        <ele>1174.39</ele>
        <time>2022-08-16T10:00:40Z</time>
      </trkpt>
      <trkpt lat="44.91385" lon="5.17799">
        <ele>1174.87</ele>
        <time>2022-08-16T10:00:44Z</time>
      </trkpt>
      <trkpt lat="44.91399" lon="5.17812">
        <ele>1173.43</ele>
        <time>2022-08-16T10:01:00Z</time>
      </trkpt>
      <trkpt lat="44.9141" lon="5.17831">
        <ele>1172.95</ele>
        <time>2022-08-16T10:01:15Z</time>
      </trkpt>
      <trkpt lat="44.91418" lon="5.17849">
        <ele>1171.5</ele>
        <time>2022-08-16T10:01:28Z</time>
      </trkpt>
      <trkpt lat="44.91419" lon="5.17854">
        <ele>1171.5</ele>
        <time>2022-08-16T10:01:31Z</time>
      </trkpt>
      <trkpt lat="44.9142" lon="5.1786">
        <ele>1171.02</ele>
        <time>2022-08-16T10:01:35Z</time>
      </trkpt>
      <trkpt lat="44.9143" lon="5.17886">
        <ele>1169.58</ele>
        <time>2022-08-16T10:01:50Z</time>
      </trkpt>
      <trkpt lat="44.91444" lon="5.17911">
        <ele>1170.06</ele>
        <time>2022-08-16T10:02:06Z</time>
      </trkpt>
      <trkpt lat="44.91455" lon="5.17938">
        <ele>1170.06</ele>
        <time>2022-08-16T10:02:22Z</time>
      </trkpt>
      <trkpt lat="44.91468" lon="5.17967">
        <ele>1169.58</ele>
        <time>2022-08-16T10:02:40Z</time>
      </trkpt>
      <trkpt lat="44.91485" lon="5.18004">
        <ele>1168.14</ele>
        <time>2022-08-16T10:03:04Z</time>
      </trkpt>
      <trkpt lat="44.91501" lon="5.18024">
        <ele>1167.66</ele>
        <time>2022-08-16T10:03:21Z</time>
      </trkpt>
      <trkpt lat="44.91518" lon="5.18012">
        <ele>1165.74</ele>
        <time>2022-08-16T10:03:36Z</time>
      </trkpt>
      <trkpt lat="44.91534" lon="5.18004">
        <ele>1162.85</ele>
        <time>2022-08-16T10:03:53Z</time>
      </trkpt>
      <trkpt lat="44.91542" lon="5.18">
        <ele>1162.85</ele>
        <time>2022-08-16T10:04:05Z</time>
      </trkpt>
      <trkpt lat="44.91543" lon="5.17998">
        <ele>1164.77</ele>
        <time>2022-08-16T10:04:08Z</time>
      </trkpt>
      <trkpt lat="44.91545" lon="5.17988">
        <ele>1167.66</ele>
        <time>2022-08-16T10:04:21Z</time>
      </trkpt>
      <trkpt lat="44.91549" lon="5.17981">
        <ele>1171.02</ele>
        <time>2022-08-16T10:04:34Z</time>
      </trkpt>
      <trkpt lat="44.91553" lon="5.1797">
        <ele>1174.39</ele>
        <time>2022-08-16T10:04:47Z</time>
      </trkpt>
      <trkpt lat="44.91554" lon="5.1797">
        <ele>1174.39</ele>
        <time>2022-08-16T10:04:48Z</time>
      </trkpt>
      <trkpt lat="44.9156" lon="5.17961">
        <ele>1176.31</ele>
        <time>2022-08-16T10:05:02Z</time>
      </trkpt>
      <trkpt lat="44.91571" lon="5.17956">
        <ele>1179.19</ele>
        <time>2022-08-16T10:05:19Z</time>
      </trkpt>
      <trkpt lat="44.91574" lon="5.17948">
        <ele>1183.04</ele>
        <time>2022-08-16T10:05:36Z</time>
      </trkpt>
      <trkpt lat="44.91576" lon="5.17944">
        <ele>1186.4</ele>
        <time>2022-08-16T10:05:48Z</time>
      </trkpt>
      <trkpt lat="44.91581" lon="5.17937">
        <ele>1189.29</ele>
        <time>2022-08-16T10:06:02Z</time>
      </trkpt>
      <trkpt lat="44.91588" lon="5.17931">
        <ele>1191.69</ele>
        <time>2022-08-16T10:06:18Z</time>
      </trkpt>
      <trkpt lat="44.91595" lon="5.17926">
        <ele>1195.06</ele>
        <time>2022-08-16T10:06:32Z</time>
      </trkpt>
      <trkpt lat="44.91601" lon="5.17918">
        <ele>1197.94</ele>
        <time>2022-08-16T10:06:49Z</time>
      </trkpt>
      <trkpt lat="44.91609" lon="5.17911">
        <ele>1200.82</ele>
        <time>2022-08-16T10:07:05Z</time>
      </trkpt>
      <trkpt lat="44.91613" lon="5.17905">
        <ele>1204.67</ele>
        <time>2022-08-16T10:07:17Z</time>
      </trkpt>
      <trkpt lat="44.91615" lon="5.17902">
        <ele>1204.67</ele>
        <time>2022-08-16T10:07:25Z</time>
      </trkpt>
      <trkpt lat="44.9162" lon="5.17894">
        <ele>1208.03</ele>
        <time>2022-08-16T10:07:40Z</time>
      </trkpt>
      <trkpt lat="44.91624" lon="5.17887">
        <ele>1211.4</ele>
        <time>2022-08-16T10:07:54Z</time>
      </trkpt>
      <trkpt lat="44.9163" lon="5.17879">
        <ele>1214.28</ele>
        <time>2022-08-16T10:08:12Z</time>
      </trkpt>
      <trkpt lat="44.91633" lon="5.17874">
        <ele>1217.65</ele>
        <time>2022-08-16T10:08:22Z</time>
      </trkpt>
      <trkpt lat="44.91641" lon="5.17866">
        <ele>1221.01</ele>
        <time>2022-08-16T10:08:40Z</time>
      </trkpt>
      <trkpt lat="44.91648" lon="5.17859">
        <ele>1223.42</ele>
        <time>2022-08-16T10:08:57Z</time>
      </trkpt>
      <trkpt lat="44.91653" lon="5.17854">
        <ele>1226.3</ele>
        <time>2022-08-16T10:09:11Z</time>
      </trkpt>
      <trkpt lat="44.91661" lon="5.1785">
        <ele>1229.66</ele>
        <time>2022-08-16T10:09:29Z</time>
      </trkpt>
      <trkpt lat="44.91664" lon="5.17842">
        <ele>1232.07</ele>
        <time>2022-08-16T10:09:45Z</time>
      </trkpt>
      <trkpt lat="44.91665" lon="5.17836">
        <ele>1235.43</ele>
        <time>2022-08-16T10:09:58Z</time>
      </trkpt>
      <trkpt lat="44.91669" lon="5.17829">
        <ele>1238.8</ele>
        <time>2022-08-16T10:10:15Z</time>
      </trkpt>
      <trkpt lat="44.91672" lon="5.1782">
        <ele>1242.16</ele>
        <time>2022-08-16T10:10:32Z</time>
      </trkpt>
      <trkpt lat="44.91671" lon="5.1781">
        <ele>1245.53</ele>
        <time>2022-08-16T10:10:49Z</time>
      </trkpt>
      <trkpt lat="44.91673" lon="5.17803">
        <ele>1247.93</ele>
        <time>2022-08-16T10:11:03Z</time>
      </trkpt>
      <trkpt lat="44.91679" lon="5.17798">
        <ele>1250.81</ele>
        <time>2022-08-16T10:11:19Z</time>
      </trkpt>
      <trkpt lat="44.91686" lon="5.17791">
        <ele>1254.18</ele>
        <time>2022-08-16T10:11:37Z</time>
      </trkpt>
      <trkpt lat="44.91689" lon="5.17785">
        <ele>1255.62</ele>
        <time>2022-08-16T10:11:50Z</time>
      </trkpt>
      <trkpt lat="44.91688" lon="5.17783">
        <ele>1257.54</ele>
        <time>2022-08-16T10:11:56Z</time>
      </trkpt>
      <trkpt lat="44.91691" lon="5.17774">
        <ele>1260.91</ele>
        <time>2022-08-16T10:12:13Z</time>
      </trkpt>
      <trkpt lat="44.91698" lon="5.17768">
        <ele>1264.27</ele>
        <time>2022-08-16T10:12:32Z</time>
      </trkpt>
      <trkpt lat="44.91698" lon="5.17759">
        <ele>1268.12</ele>
        <time>2022-08-16T10:12:51Z</time>
      </trkpt>
      <trkpt lat="44.91696" lon="5.17749">
        <ele>1271</ele>
        <time>2022-08-16T10:13:04Z</time>
      </trkpt>
      <trkpt lat="44.91695" lon="5.1774">
        <ele>1272.92</ele>
        <time>2022-08-16T10:13:20Z</time>
      </trkpt>
      <trkpt lat="44.91696" lon="5.17737">
        <ele>1275.81</ele>
        <time>2022-08-16T10:13:25Z</time>
      </trkpt>
      <trkpt lat="44.91699" lon="5.17734">
        <ele>1276.29</ele>
        <time>2022-08-16T10:13:35Z</time>
      </trkpt>
      <trkpt lat="44.917" lon="5.17725">
        <ele>1279.17</ele>
        <time>2022-08-16T10:13:52Z</time>
      </trkpt>
      <trkpt lat="44.91699" lon="5.17718">
        <ele>1280.13</ele>
        <time>2022-08-16T10:14:07Z</time>
      </trkpt>
      <trkpt lat="44.91699" lon="5.1771">
        <ele>1283.02</ele>
        <time>2022-08-16T10:14:16Z</time>
      </trkpt>
      <trkpt lat="44.91697" lon="5.17701">
        <ele>1284.46</ele>
        <time>2022-08-16T10:14:29Z</time>
      </trkpt>
      <trkpt lat="44.91698" lon="5.17692">
        <ele>1286.86</ele>
        <time>2022-08-16T10:14:43Z</time>
      </trkpt>
      <trkpt lat="44.91701" lon="5.17692">
        <ele>1286.86</ele>
        <time>2022-08-16T10:14:57Z</time>
      </trkpt>
      <trkpt lat="44.91708" lon="5.17693">
        <ele>1289.27</ele>
        <time>2022-08-16T10:15:11Z</time>
      </trkpt>
      <trkpt lat="44.9171" lon="5.17688">
        <ele>1290.71</ele>
        <time>2022-08-16T10:15:27Z</time>
      </trkpt>
      <trkpt lat="44.9171" lon="5.17679">
        <ele>1293.11</ele>
        <time>2022-08-16T10:15:41Z</time>
      </trkpt>
      <trkpt lat="44.91712" lon="5.17665">
        <ele>1294.55</ele>
        <time>2022-08-16T10:15:55Z</time>
      </trkpt>
      <trkpt lat="44.91712" lon="5.17657">
        <ele>1295.03</ele>
        <time>2022-08-16T10:16:10Z</time>
      </trkpt>
      <trkpt lat="44.91713" lon="5.17657">
        <ele>1295.51</ele>
        <time>2022-08-16T10:16:31Z</time>
      </trkpt>
      <trkpt lat="44.91713" lon="5.17656">
        <ele>1295.99</ele>
        <time>2022-08-16T10:17:12Z</time>
      </trkpt>
      <trkpt lat="44.91712" lon="5.17656">
        <ele>1294.55</ele>
        <time>2022-08-16T10:17:27Z</time>
      </trkpt>
      <trkpt lat="44.91713" lon="5.1765">
        <ele>1294.55</ele>
        <time>2022-08-16T10:17:46Z</time>
      </trkpt>
      <trkpt lat="44.91715" lon="5.17642">
        <ele>1294.07</ele>
        <time>2022-08-16T10:18:01Z</time>
      </trkpt>
      <trkpt lat="44.91717" lon="5.17633">
        <ele>1291.67</ele>
        <time>2022-08-16T10:18:16Z</time>
      </trkpt>
      <trkpt lat="44.91716" lon="5.17624">
        <ele>1289.75</ele>
        <time>2022-08-16T10:18:32Z</time>
      </trkpt>
      <trkpt lat="44.91716" lon="5.17617">
        <ele>1289.75</ele>
        <time>2022-08-16T10:18:46Z</time>
      </trkpt>
      <trkpt lat="44.91712" lon="5.17609">
        <ele>1287.34</ele>
        <time>2022-08-16T10:19:01Z</time>
      </trkpt>
      <trkpt lat="44.91711" lon="5.1761">
        <ele>1295.51</ele>
        <time>2022-08-16T10:59:37Z</time>
      </trkpt>
      <trkpt lat="44.91711" lon="5.17608">
        <ele>1295.51</ele>
        <time>2022-08-16T10:59:51Z</time>
      </trkpt>
      <trkpt lat="44.91712" lon="5.176">
        <ele>1294.55</ele>
        <time>2022-08-16T11:00:09Z</time>
      </trkpt>
      <trkpt lat="44.9171" lon="5.1759">
        <ele>1293.59</ele>
        <time>2022-08-16T11:00:23Z</time>
      </trkpt>
      <trkpt lat="44.91712" lon="5.17584">
        <ele>1291.19</ele>
        <time>2022-08-16T11:00:41Z</time>
      </trkpt>
      <trkpt lat="44.91717" lon="5.17575">
        <ele>1288.78</ele>
        <time>2022-08-16T11:00:56Z</time>
      </trkpt>
      <trkpt lat="44.91718" lon="5.17571">
        <ele>1287.34</ele>
        <time>2022-08-16T11:01:00Z</time>
      </trkpt>
      <trkpt lat="44.91716" lon="5.17546">
        <ele>1283.5</ele>
        <time>2022-08-16T11:01:18Z</time>
      </trkpt>
      <trkpt lat="44.91718" lon="5.17535">
        <ele>1280.13</ele>
        <time>2022-08-16T11:01:29Z</time>
      </trkpt>
      <trkpt lat="44.9172" lon="5.17521">
        <ele>1276.77</ele>
        <time>2022-08-16T11:01:42Z</time>
      </trkpt>
      <trkpt lat="44.9172" lon="5.17518">
        <ele>1276.29</ele>
        <time>2022-08-16T11:01:45Z</time>
      </trkpt>
      <trkpt lat="44.91718" lon="5.17514">
        <ele>1275.81</ele>
        <time>2022-08-16T11:01:49Z</time>
      </trkpt>
      <trkpt lat="44.91723" lon="5.175">
        <ele>1271.96</ele>
        <time>2022-08-16T11:02:03Z</time>
      </trkpt>
      <trkpt lat="44.91723" lon="5.17498">
        <ele>1271.96</ele>
        <time>2022-08-16T11:02:05Z</time>
      </trkpt>
      <trkpt lat="44.91721" lon="5.17493">
        <ele>1271.96</ele>
        <time>2022-08-16T11:02:09Z</time>
      </trkpt>
      <trkpt lat="44.91719" lon="5.17492">
        <ele>1271.48</ele>
        <time>2022-08-16T11:02:11Z</time>
      </trkpt>
      <trkpt lat="44.91714" lon="5.17478">
        <ele>1268.6</ele>
        <time>2022-08-16T11:02:27Z</time>
      </trkpt>
      <trkpt lat="44.91711" lon="5.17471">
        <ele>1265.23</ele>
        <time>2022-08-16T11:02:37Z</time>
      </trkpt>
      <trkpt lat="44.91707" lon="5.17461">
        <ele>1263.79</ele>
        <time>2022-08-16T11:02:51Z</time>
      </trkpt>
      <trkpt lat="44.91707" lon="5.17447">
        <ele>1261.39</ele>
        <time>2022-08-16T11:03:05Z</time>
      </trkpt>
      <trkpt lat="44.9171" lon="5.17442">
        <ele>1258.98</ele>
        <time>2022-08-16T11:03:12Z</time>
      </trkpt>
      <trkpt lat="44.91715" lon="5.17431">
        <ele>1255.14</ele>
        <time>2022-08-16T11:03:25Z</time>
      </trkpt>
      <trkpt lat="44.91717" lon="5.1742">
        <ele>1252.74</ele>
        <time>2022-08-16T11:03:41Z</time>
      </trkpt>
      <trkpt lat="44.91723" lon="5.17404">
        <ele>1249.37</ele>
        <time>2022-08-16T11:03:53Z</time>
      </trkpt>
      <trkpt lat="44.91729" lon="5.17395">
        <ele>1246.01</ele>
        <time>2022-08-16T11:04:02Z</time>
      </trkpt>
      <trkpt lat="44.91733" lon="5.17392">
        <ele>1245.04</ele>
        <time>2022-08-16T11:04:07Z</time>
      </trkpt>
      <trkpt lat="44.9174" lon="5.17374">
        <ele>1242.16</ele>
        <time>2022-08-16T11:04:20Z</time>
      </trkpt>
      <trkpt lat="44.91743" lon="5.17364">
        <ele>1239.76</ele>
        <time>2022-08-16T11:04:29Z</time>
      </trkpt>
      <trkpt lat="44.91745" lon="5.17348">
        <ele>1235.91</ele>
        <time>2022-08-16T11:04:40Z</time>
      </trkpt>
      <trkpt lat="44.91745" lon="5.17347">
        <ele>1235.91</ele>
        <time>2022-08-16T11:04:41Z</time>
      </trkpt>
      <trkpt lat="44.91744" lon="5.17343">
        <ele>1234.95</ele>
        <time>2022-08-16T11:04:44Z</time>
      </trkpt>
      <trkpt lat="44.91745" lon="5.17336">
        <ele>1234.47</ele>
        <time>2022-08-16T11:04:49Z</time>
      </trkpt>
      <trkpt lat="44.91745" lon="5.17327">
        <ele>1231.59</ele>
        <time>2022-08-16T11:04:56Z</time>
      </trkpt>
      <trkpt lat="44.91748" lon="5.17312">
        <ele>1228.22</ele>
        <time>2022-08-16T11:05:07Z</time>
      </trkpt>
      <trkpt lat="44.91748" lon="5.17311">
        <ele>1228.22</ele>
        <time>2022-08-16T11:05:08Z</time>
      </trkpt>
      <trkpt lat="44.91747" lon="5.17298">
        <ele>1224.86</ele>
        <time>2022-08-16T11:05:19Z</time>
      </trkpt>
      <trkpt lat="44.91747" lon="5.17295">
        <ele>1224.38</ele>
        <time>2022-08-16T11:05:21Z</time>
      </trkpt>
      <trkpt lat="44.91747" lon="5.17287">
        <ele>1222.45</ele>
        <time>2022-08-16T11:05:28Z</time>
      </trkpt>
      <trkpt lat="44.91747" lon="5.17282">
        <ele>1220.53</ele>
        <time>2022-08-16T11:05:31Z</time>
      </trkpt>
      <trkpt lat="44.91748" lon="5.17277">
        <ele>1220.53</ele>
        <time>2022-08-16T11:05:34Z</time>
      </trkpt>
      <trkpt lat="44.9175" lon="5.17253">
        <ele>1216.69</ele>
        <time>2022-08-16T11:05:49Z</time>
      </trkpt>
      <trkpt lat="44.9175" lon="5.17236">
        <ele>1213.8</ele>
        <time>2022-08-16T11:06:02Z</time>
      </trkpt>
      <trkpt lat="44.9175" lon="5.17225">
        <ele>1210.44</ele>
        <time>2022-08-16T11:06:10Z</time>
      </trkpt>
      <trkpt lat="44.91749" lon="5.17221">
        <ele>1209</ele>
        <time>2022-08-16T11:06:13Z</time>
      </trkpt>
      <trkpt lat="44.91748" lon="5.17214">
        <ele>1206.11</ele>
        <time>2022-08-16T11:06:18Z</time>
      </trkpt>
      <trkpt lat="44.9175" lon="5.172">
        <ele>1202.75</ele>
        <time>2022-08-16T11:06:27Z</time>
      </trkpt>
      <trkpt lat="44.91759" lon="5.17169">
        <ele>1202.27</ele>
        <time>2022-08-16T11:06:45Z</time>
      </trkpt>
      <trkpt lat="44.91759" lon="5.17167">
        <ele>1202.27</ele>
        <time>2022-08-16T11:06:46Z</time>
      </trkpt>
      <trkpt lat="44.91766" lon="5.17131">
        <ele>1200.82</ele>
        <time>2022-08-16T11:07:06Z</time>
      </trkpt>
      <trkpt lat="44.91769" lon="5.17101">
        <ele>1200.82</ele>
        <time>2022-08-16T11:07:22Z</time>
      </trkpt>
      <trkpt lat="44.91769" lon="5.17094">
        <ele>1197.46</ele>
        <time>2022-08-16T11:07:26Z</time>
      </trkpt>
      <trkpt lat="44.91769" lon="5.17093">
        <ele>1197.46</ele>
        <time>2022-08-16T11:07:27Z</time>
      </trkpt>
      <trkpt lat="44.91765" lon="5.17067">
        <ele>1194.09</ele>
        <time>2022-08-16T11:07:42Z</time>
      </trkpt>
      <trkpt lat="44.91762" lon="5.17052">
        <ele>1191.21</ele>
        <time>2022-08-16T11:07:56Z</time>
      </trkpt>
      <trkpt lat="44.91764" lon="5.17031">
        <ele>1188.33</ele>
        <time>2022-08-16T11:08:09Z</time>
      </trkpt>
      <trkpt lat="44.91767" lon="5.17017">
        <ele>1185.92</ele>
        <time>2022-08-16T11:08:18Z</time>
      </trkpt>
      <trkpt lat="44.91771" lon="5.17001">
        <ele>1182.08</ele>
        <time>2022-08-16T11:08:29Z</time>
      </trkpt>
      <trkpt lat="44.91775" lon="5.16983">
        <ele>1178.71</ele>
        <time>2022-08-16T11:08:42Z</time>
      </trkpt>
      <trkpt lat="44.91775" lon="5.16982">
        <ele>1178.71</ele>
        <time>2022-08-16T11:08:43Z</time>
      </trkpt>
      <trkpt lat="44.91775" lon="5.16975">
        <ele>1176.31</ele>
        <time>2022-08-16T11:08:49Z</time>
      </trkpt>
      <trkpt lat="44.9178" lon="5.16959">
        <ele>1172.95</ele>
        <time>2022-08-16T11:08:59Z</time>
      </trkpt>
      <trkpt lat="44.91795" lon="5.16938">
        <ele>1171.98</ele>
        <time>2022-08-16T11:09:15Z</time>
      </trkpt>
      <trkpt lat="44.91802" lon="5.16926">
        <ele>1173.43</ele>
        <time>2022-08-16T11:09:23Z</time>
      </trkpt>
      <trkpt lat="44.9181" lon="5.16913">
        <ele>1171.5</ele>
        <time>2022-08-16T11:09:32Z</time>
      </trkpt>
      <trkpt lat="44.91816" lon="5.16908">
        <ele>1172.95</ele>
        <time>2022-08-16T11:09:38Z</time>
      </trkpt>
      <trkpt lat="44.91818" lon="5.16896">
        <ele>1175.83</ele>
        <time>2022-08-16T11:09:46Z</time>
      </trkpt>
      <trkpt lat="44.91818" lon="5.16881">
        <ele>1173.43</ele>
        <time>2022-08-16T11:09:57Z</time>
      </trkpt>
      <trkpt lat="44.91819" lon="5.16878">
        <ele>1174.39</ele>
        <time>2022-08-16T11:10:02Z</time>
      </trkpt>
      <trkpt lat="44.9182" lon="5.16867">
        <ele>1172.47</ele>
        <time>2022-08-16T11:10:08Z</time>
      </trkpt>
      <trkpt lat="44.91821" lon="5.16851">
        <ele>1173.43</ele>
        <time>2022-08-16T11:10:16Z</time>
      </trkpt>
      <trkpt lat="44.91825" lon="5.16837">
        <ele>1170.54</ele>
        <time>2022-08-16T11:10:24Z</time>
      </trkpt>
      <trkpt lat="44.91829" lon="5.16815">
        <ele>1172.47</ele>
        <time>2022-08-16T11:10:39Z</time>
      </trkpt>
      <trkpt lat="44.91834" lon="5.16804">
        <ele>1174.39</ele>
        <time>2022-08-16T11:10:49Z</time>
      </trkpt>
      <trkpt lat="44.91837" lon="5.16781">
        <ele>1175.35</ele>
        <time>2022-08-16T11:11:03Z</time>
      </trkpt>
      <trkpt lat="44.91837" lon="5.16759">
        <ele>1175.83</ele>
        <time>2022-08-16T11:11:18Z</time>
      </trkpt>
      <trkpt lat="44.91832" lon="5.16733">
        <ele>1175.83</ele>
        <time>2022-08-16T11:11:32Z</time>
      </trkpt>
      <trkpt lat="44.91829" lon="5.16717">
        <ele>1176.31</ele>
        <time>2022-08-16T11:11:44Z</time>
      </trkpt>
      <trkpt lat="44.91825" lon="5.16691">
        <ele>1178.71</ele>
        <time>2022-08-16T11:11:59Z</time>
      </trkpt>
      <trkpt lat="44.91825" lon="5.1668">
        <ele>1179.19</ele>
        <time>2022-08-16T11:12:06Z</time>
      </trkpt>
      <trkpt lat="44.91825" lon="5.16654">
        <ele>1180.64</ele>
        <time>2022-08-16T11:12:22Z</time>
      </trkpt>
      <trkpt lat="44.91826" lon="5.16626">
        <ele>1181.6</ele>
        <time>2022-08-16T11:12:38Z</time>
      </trkpt>
      <trkpt lat="44.9183" lon="5.16593">
        <ele>1183.04</ele>
        <time>2022-08-16T11:12:56Z</time>
      </trkpt>
      <trkpt lat="44.9184" lon="5.16572">
        <ele>1184.48</ele>
        <time>2022-08-16T11:13:10Z</time>
      </trkpt>
      <trkpt lat="44.91852" lon="5.16551">
        <ele>1185.44</ele>
        <time>2022-08-16T11:13:26Z</time>
      </trkpt>
      <trkpt lat="44.91854" lon="5.16521">
        <ele>1183.04</ele>
        <time>2022-08-16T11:13:43Z</time>
      </trkpt>
      <trkpt lat="44.91847" lon="5.16489">
        <ele>1180.16</ele>
        <time>2022-08-16T11:14:02Z</time>
      </trkpt>
      <trkpt lat="44.91836" lon="5.16469">
        <ele>1177.27</ele>
        <time>2022-08-16T11:14:16Z</time>
      </trkpt>
      <trkpt lat="44.91828" lon="5.16448">
        <ele>1173.91</ele>
        <time>2022-08-16T11:14:30Z</time>
      </trkpt>
      <trkpt lat="44.91821" lon="5.1643">
        <ele>1171.02</ele>
        <time>2022-08-16T11:14:42Z</time>
      </trkpt>
      <trkpt lat="44.91811" lon="5.16412">
        <ele>1167.66</ele>
        <time>2022-08-16T11:14:56Z</time>
      </trkpt>
      <trkpt lat="44.91807" lon="5.16397">
        <ele>1164.29</ele>
        <time>2022-08-16T11:15:07Z</time>
      </trkpt>
      <trkpt lat="44.91805" lon="5.16386">
        <ele>1162.37</ele>
        <time>2022-08-16T11:15:14Z</time>
      </trkpt>
      <trkpt lat="44.91802" lon="5.16373">
        <ele>1159.01</ele>
        <time>2022-08-16T11:15:24Z</time>
      </trkpt>
      <trkpt lat="44.91801" lon="5.1636">
        <ele>1156.6</ele>
        <time>2022-08-16T11:15:36Z</time>
      </trkpt>
      <trkpt lat="44.91801" lon="5.16358">
        <ele>1156.12</ele>
        <time>2022-08-16T11:15:37Z</time>
      </trkpt>
      <trkpt lat="44.91804" lon="5.1635">
        <ele>1154.2</ele>
        <time>2022-08-16T11:15:43Z</time>
      </trkpt>
      <trkpt lat="44.91807" lon="5.16338">
        <ele>1151.32</ele>
        <time>2022-08-16T11:15:52Z</time>
      </trkpt>
      <trkpt lat="44.91806" lon="5.16324">
        <ele>1147.95</ele>
        <time>2022-08-16T11:16:02Z</time>
      </trkpt>
      <trkpt lat="44.91803" lon="5.16303">
        <ele>1144.11</ele>
        <time>2022-08-16T11:16:16Z</time>
      </trkpt>
      <trkpt lat="44.91803" lon="5.16291">
        <ele>1142.18</ele>
        <time>2022-08-16T11:16:24Z</time>
      </trkpt>
      <trkpt lat="44.91803" lon="5.16274">
        <ele>1138.34</ele>
        <time>2022-08-16T11:16:38Z</time>
      </trkpt>
      <trkpt lat="44.91806" lon="5.16271">
        <ele>1137.38</ele>
        <time>2022-08-16T11:16:53Z</time>
      </trkpt>
      <trkpt lat="44.91806" lon="5.1627">
        <ele>1136.9</ele>
        <time>2022-08-16T11:17:16Z</time>
      </trkpt>
      <trkpt lat="44.91806" lon="5.1627">
        <ele>1135.94</ele>
        <time>2022-08-16T11:17:19Z</time>
      </trkpt>
      <trkpt lat="44.91803" lon="5.16265">
        <ele>1136.42</ele>
        <time>2022-08-16T11:17:23Z</time>
      </trkpt>
      <trkpt lat="44.91802" lon="5.16261">
        <ele>1135.45</ele>
        <time>2022-08-16T11:17:26Z</time>
      </trkpt>
      <trkpt lat="44.91801" lon="5.16257">
        <ele>1135.45</ele>
        <time>2022-08-16T11:17:28Z</time>
      </trkpt>
      <trkpt lat="44.91798" lon="5.16237">
        <ele>1132.09</ele>
        <time>2022-08-16T11:17:39Z</time>
      </trkpt>
      <trkpt lat="44.91793" lon="5.16201">
        <ele>1128.73</ele>
        <time>2022-08-16T11:17:58Z</time>
      </trkpt>
      <trkpt lat="44.91786" lon="5.16169">
        <ele>1126.32</ele>
        <time>2022-08-16T11:18:16Z</time>
      </trkpt>
      <trkpt lat="44.91781" lon="5.16136">
        <ele>1123.92</ele>
        <time>2022-08-16T11:18:34Z</time>
      </trkpt>
      <trkpt lat="44.91775" lon="5.16109">
        <ele>1121.52</ele>
        <time>2022-08-16T11:18:49Z</time>
      </trkpt>
      <trkpt lat="44.91768" lon="5.16076">
        <ele>1119.59</ele>
        <time>2022-08-16T11:19:07Z</time>
      </trkpt>
      <trkpt lat="44.91761" lon="5.1605">
        <ele>1118.15</ele>
        <time>2022-08-16T11:19:22Z</time>
      </trkpt>
      <trkpt lat="44.91759" lon="5.16043">
        <ele>1117.19</ele>
        <time>2022-08-16T11:19:26Z</time>
      </trkpt>
      <trkpt lat="44.91757" lon="5.16034">
        <ele>1118.15</ele>
        <time>2022-08-16T11:19:31Z</time>
      </trkpt>
      <trkpt lat="44.91756" lon="5.1603">
        <ele>1118.15</ele>
        <time>2022-08-16T11:19:33Z</time>
      </trkpt>
      <trkpt lat="44.91754" lon="5.16023">
        <ele>1117.19</ele>
        <time>2022-08-16T11:19:37Z</time>
      </trkpt>
      <trkpt lat="44.91746" lon="5.15991">
        <ele>1114.31</ele>
        <time>2022-08-16T11:19:55Z</time>
      </trkpt>
      <trkpt lat="44.9174" lon="5.15963">
        <ele>1112.86</ele>
        <time>2022-08-16T11:20:11Z</time>
      </trkpt>
      <trkpt lat="44.91735" lon="5.15933">
        <ele>1110.94</ele>
        <time>2022-08-16T11:20:28Z</time>
      </trkpt>
      <trkpt lat="44.91733" lon="5.15929">
        <ele>1110.46</ele>
        <time>2022-08-16T11:20:31Z</time>
      </trkpt>
      <trkpt lat="44.91733" lon="5.15923">
        <ele>1110.46</ele>
        <time>2022-08-16T11:20:35Z</time>
      </trkpt>
      <trkpt lat="44.91736" lon="5.15908">
        <ele>1109.98</ele>
        <time>2022-08-16T11:20:53Z</time>
      </trkpt>
      <trkpt lat="44.91739" lon="5.1591">
        <ele>1108.06</ele>
        <time>2022-08-16T11:21:06Z</time>
      </trkpt>
      <trkpt lat="44.91745" lon="5.15914">
        <ele>1105.65</ele>
        <time>2022-08-16T11:21:17Z</time>
      </trkpt>
      <trkpt lat="44.91751" lon="5.15919">
        <ele>1102.77</ele>
        <time>2022-08-16T11:21:32Z</time>
      </trkpt>
      <trkpt lat="44.91756" lon="5.15921">
        <ele>1099.89</ele>
        <time>2022-08-16T11:21:45Z</time>
      </trkpt>
      <trkpt lat="44.91763" lon="5.1592">
        <ele>1097</ele>
        <time>2022-08-16T11:21:59Z</time>
      </trkpt>
      <trkpt lat="44.91771" lon="5.15922">
        <ele>1093.64</ele>
        <time>2022-08-16T11:22:11Z</time>
      </trkpt>
      <trkpt lat="44.91777" lon="5.15923">
        <ele>1090.75</ele>
        <time>2022-08-16T11:22:22Z</time>
      </trkpt>
      <trkpt lat="44.91783" lon="5.15924">
        <ele>1087.87</ele>
        <time>2022-08-16T11:22:33Z</time>
      </trkpt>
      <trkpt lat="44.91789" lon="5.15926">
        <ele>1086.91</ele>
        <time>2022-08-16T11:22:40Z</time>
      </trkpt>
      <trkpt lat="44.91801" lon="5.15933">
        <ele>1084.02</ele>
        <time>2022-08-16T11:22:55Z</time>
      </trkpt>
      <trkpt lat="44.9181" lon="5.15935">
        <ele>1081.14</ele>
        <time>2022-08-16T11:23:09Z</time>
      </trkpt>
      <trkpt lat="44.9182" lon="5.15939">
        <ele>1077.78</ele>
        <time>2022-08-16T11:23:24Z</time>
      </trkpt>
      <trkpt lat="44.91823" lon="5.15933">
        <ele>1075.37</ele>
        <time>2022-08-16T11:23:37Z</time>
      </trkpt>
      <trkpt lat="44.91823" lon="5.15932">
        <ele>1074.89</ele>
        <time>2022-08-16T11:23:38Z</time>
      </trkpt>
      <trkpt lat="44.91818" lon="5.15919">
        <ele>1072.97</ele>
        <time>2022-08-16T11:23:52Z</time>
      </trkpt>
      <trkpt lat="44.91812" lon="5.15904">
        <ele>1070.57</ele>
        <time>2022-08-16T11:24:07Z</time>
      </trkpt>
      <trkpt lat="44.91807" lon="5.15898">
        <ele>1070.08</ele>
        <time>2022-08-16T11:24:19Z</time>
      </trkpt>
      <trkpt lat="44.91802" lon="5.15895">
        <ele>1067.68</ele>
        <time>2022-08-16T11:24:32Z</time>
      </trkpt>
      <trkpt lat="44.91795" lon="5.15891">
        <ele>1066.72</ele>
        <time>2022-08-16T11:24:55Z</time>
      </trkpt>
      <trkpt lat="44.91792" lon="5.1588">
        <ele>1065.28</ele>
        <time>2022-08-16T11:25:27Z</time>
      </trkpt>
      <trkpt lat="44.91786" lon="5.15873">
        <ele>1061.91</ele>
        <time>2022-08-16T11:25:36Z</time>
      </trkpt>
      <trkpt lat="44.91778" lon="5.15863">
        <ele>1059.03</ele>
        <time>2022-08-16T11:25:47Z</time>
      </trkpt>
      <trkpt lat="44.91774" lon="5.15854">
        <ele>1056.15</ele>
        <time>2022-08-16T11:25:58Z</time>
      </trkpt>
      <trkpt lat="44.91772" lon="5.15841">
        <ele>1052.78</ele>
        <time>2022-08-16T11:26:08Z</time>
      </trkpt>
      <trkpt lat="44.91767" lon="5.1583">
        <ele>1049.9</ele>
        <time>2022-08-16T11:26:20Z</time>
      </trkpt>
      <trkpt lat="44.91763" lon="5.15822">
        <ele>1048.45</ele>
        <time>2022-08-16T11:26:27Z</time>
      </trkpt>
      <trkpt lat="44.91751" lon="5.15805">
        <ele>1045.09</ele>
        <time>2022-08-16T11:26:43Z</time>
      </trkpt>
      <trkpt lat="44.91745" lon="5.15793">
        <ele>1043.17</ele>
        <time>2022-08-16T11:26:52Z</time>
      </trkpt>
      <trkpt lat="44.91734" lon="5.15777">
        <ele>1039.32</ele>
        <time>2022-08-16T11:27:05Z</time>
      </trkpt>
      <trkpt lat="44.91728" lon="5.15765">
        <ele>1036.44</ele>
        <time>2022-08-16T11:27:17Z</time>
      </trkpt>
      <trkpt lat="44.91723" lon="5.15756">
        <ele>1033.07</ele>
        <time>2022-08-16T11:27:26Z</time>
      </trkpt>
      <trkpt lat="44.91715" lon="5.15746">
        <ele>1029.71</ele>
        <time>2022-08-16T11:27:39Z</time>
      </trkpt>
      <trkpt lat="44.91706" lon="5.15734">
        <ele>1026.34</ele>
        <time>2022-08-16T11:27:52Z</time>
      </trkpt>
      <trkpt lat="44.917" lon="5.15724">
        <ele>1022.98</ele>
        <time>2022-08-16T11:28:05Z</time>
      </trkpt>
      <trkpt lat="44.91697" lon="5.15713">
        <ele>1019.62</ele>
        <time>2022-08-16T11:28:16Z</time>
      </trkpt>
      <trkpt lat="44.9169" lon="5.15699">
        <ele>1016.25</ele>
        <time>2022-08-16T11:28:30Z</time>
      </trkpt>
      <trkpt lat="44.91685" lon="5.15689">
        <ele>1012.89</ele>
        <time>2022-08-16T11:28:42Z</time>
      </trkpt>
      <trkpt lat="44.91678" lon="5.15677">
        <ele>1009.52</ele>
        <time>2022-08-16T11:28:55Z</time>
      </trkpt>
      <trkpt lat="44.91677" lon="5.15673">
        <ele>1009.04</ele>
        <time>2022-08-16T11:28:58Z</time>
      </trkpt>
      <trkpt lat="44.9167" lon="5.1566">
        <ele>1005.68</ele>
        <time>2022-08-16T11:29:11Z</time>
      </trkpt>
      <trkpt lat="44.91668" lon="5.15644">
        <ele>1002.79</ele>
        <time>2022-08-16T11:29:25Z</time>
      </trkpt>
      <trkpt lat="44.91666" lon="5.15632">
        <ele>999.91</ele>
        <time>2022-08-16T11:29:39Z</time>
      </trkpt>
      <trkpt lat="44.9166" lon="5.1562">
        <ele>997.02</ele>
        <time>2022-08-16T11:29:51Z</time>
      </trkpt>
      <trkpt lat="44.91653" lon="5.15608">
        <ele>994.14</ele>
        <time>2022-08-16T11:30:03Z</time>
      </trkpt>
      <trkpt lat="44.91652" lon="5.15598">
        <ele>991.74</ele>
        <time>2022-08-16T11:30:16Z</time>
      </trkpt>
      <trkpt lat="44.91648" lon="5.15586">
        <ele>989.81</ele>
        <time>2022-08-16T11:30:31Z</time>
      </trkpt>
      <trkpt lat="44.91644" lon="5.15578">
        <ele>986.45</ele>
        <time>2022-08-16T11:30:42Z</time>
      </trkpt>
      <trkpt lat="44.91643" lon="5.15574">
        <ele>985.97</ele>
        <time>2022-08-16T11:30:46Z</time>
      </trkpt>
      <trkpt lat="44.91641" lon="5.15561">
        <ele>983.09</ele>
        <time>2022-08-16T11:31:00Z</time>
      </trkpt>
      <trkpt lat="44.91643" lon="5.15562">
        <ele>981.16</ele>
        <time>2022-08-16T11:31:07Z</time>
      </trkpt>
      <trkpt lat="44.91649" lon="5.15558">
        <ele>978.28</ele>
        <time>2022-08-16T11:31:21Z</time>
      </trkpt>
      <trkpt lat="44.91647" lon="5.1555">
        <ele>975.39</ele>
        <time>2022-08-16T11:31:33Z</time>
      </trkpt>
      <trkpt lat="44.91645" lon="5.1554">
        <ele>971.55</ele>
        <time>2022-08-16T11:31:46Z</time>
      </trkpt>
      <trkpt lat="44.91638" lon="5.15528">
        <ele>969.15</ele>
        <time>2022-08-16T11:32:00Z</time>
      </trkpt>
      <trkpt lat="44.91633" lon="5.15518">
        <ele>965.78</ele>
        <time>2022-08-16T11:32:13Z</time>
      </trkpt>
      <trkpt lat="44.91634" lon="5.15509">
        <ele>962.9</ele>
        <time>2022-08-16T11:32:25Z</time>
      </trkpt>
      <trkpt lat="44.91634" lon="5.155">
        <ele>959.53</ele>
        <time>2022-08-16T11:32:39Z</time>
      </trkpt>
      <trkpt lat="44.91632" lon="5.15492">
        <ele>956.17</ele>
        <time>2022-08-16T11:32:52Z</time>
      </trkpt>
      <trkpt lat="44.91628" lon="5.15482">
        <ele>952.8</ele>
        <time>2022-08-16T11:33:04Z</time>
      </trkpt>
      <trkpt lat="44.91625" lon="5.15474">
        <ele>951.36</ele>
        <time>2022-08-16T11:33:18Z</time>
      </trkpt>
      <trkpt lat="44.91624" lon="5.15473">
        <ele>950.4</ele>
        <time>2022-08-16T11:33:37Z</time>
      </trkpt>
      <trkpt lat="44.9162" lon="5.15464">
        <ele>949.44</ele>
        <time>2022-08-16T11:33:55Z</time>
      </trkpt>
      <trkpt lat="44.91618" lon="5.15454">
        <ele>946.07</ele>
        <time>2022-08-16T11:34:10Z</time>
      </trkpt>
      <trkpt lat="44.91617" lon="5.15443">
        <ele>942.71</ele>
        <time>2022-08-16T11:34:22Z</time>
      </trkpt>
      <trkpt lat="44.91617" lon="5.15434">
        <ele>939.35</ele>
        <time>2022-08-16T11:34:33Z</time>
      </trkpt>
      <trkpt lat="44.91612" lon="5.15427">
        <ele>936.94</ele>
        <time>2022-08-16T11:34:48Z</time>
      </trkpt>
      <trkpt lat="44.91613" lon="5.15423">
        <ele>935.02</ele>
        <time>2022-08-16T11:35:08Z</time>
      </trkpt>
      <trkpt lat="44.91614" lon="5.15418">
        <ele>934.54</ele>
        <time>2022-08-16T11:35:38Z</time>
      </trkpt>
      <trkpt lat="44.91609" lon="5.15409">
        <ele>931.17</ele>
        <time>2022-08-16T11:35:50Z</time>
      </trkpt>
      <trkpt lat="44.91607" lon="5.15394">
        <ele>927.81</ele>
        <time>2022-08-16T11:36:03Z</time>
      </trkpt>
      <trkpt lat="44.91604" lon="5.1538">
        <ele>924.45</ele>
        <time>2022-08-16T11:36:16Z</time>
      </trkpt>
      <trkpt lat="44.91604" lon="5.1537">
        <ele>922.04</ele>
        <time>2022-08-16T11:36:31Z</time>
      </trkpt>
      <trkpt lat="44.91601" lon="5.1536">
        <ele>919.64</ele>
        <time>2022-08-16T11:36:45Z</time>
      </trkpt>
      <trkpt lat="44.91599" lon="5.1535">
        <ele>917.72</ele>
        <time>2022-08-16T11:37:01Z</time>
      </trkpt>
      <trkpt lat="44.91598" lon="5.15337">
        <ele>914.35</ele>
        <time>2022-08-16T11:37:14Z</time>
      </trkpt>
      <trkpt lat="44.91598" lon="5.1532">
        <ele>911.47</ele>
        <time>2022-08-16T11:37:31Z</time>
      </trkpt>
      <trkpt lat="44.91596" lon="5.15309">
        <ele>909.06</ele>
        <time>2022-08-16T11:37:48Z</time>
      </trkpt>
      <trkpt lat="44.91594" lon="5.15302">
        <ele>907.62</ele>
        <time>2022-08-16T11:38:01Z</time>
      </trkpt>
      <trkpt lat="44.9159" lon="5.1529">
        <ele>906.66</ele>
        <time>2022-08-16T11:38:15Z</time>
      </trkpt>
      <trkpt lat="44.91589" lon="5.15281">
        <ele>904.26</ele>
        <time>2022-08-16T11:38:31Z</time>
      </trkpt>
      <trkpt lat="44.91585" lon="5.15282">
        <ele>906.66</ele>
        <time>2022-08-16T11:38:46Z</time>
      </trkpt>
      <trkpt lat="44.91582" lon="5.15289">
        <ele>910.03</ele>
        <time>2022-08-16T11:39:04Z</time>
      </trkpt>
      <trkpt lat="44.91572" lon="5.15276">
        <ele>911.47</ele>
        <time>2022-08-16T11:39:22Z</time>
      </trkpt>
      <trkpt lat="44.91565" lon="5.15267">
        <ele>912.91</ele>
        <time>2022-08-16T11:39:38Z</time>
      </trkpt>
      <trkpt lat="44.91564" lon="5.15259">
        <ele>911.95</ele>
        <time>2022-08-16T11:39:46Z</time>
      </trkpt>
      <trkpt lat="44.91561" lon="5.15246">
        <ele>909.54</ele>
        <time>2022-08-16T11:39:59Z</time>
      </trkpt>
      <trkpt lat="44.91557" lon="5.15233">
        <ele>909.06</ele>
        <time>2022-08-16T11:40:13Z</time>
      </trkpt>
      <trkpt lat="44.91552" lon="5.15218">
        <ele>906.18</ele>
        <time>2022-08-16T11:40:28Z</time>
      </trkpt>
      <trkpt lat="44.91548" lon="5.15206">
        <ele>904.74</ele>
        <time>2022-08-16T11:40:41Z</time>
      </trkpt>
      <trkpt lat="44.91543" lon="5.15191">
        <ele>904.26</ele>
        <time>2022-08-16T11:40:55Z</time>
      </trkpt>
      <trkpt lat="44.91538" lon="5.15181">
        <ele>905.7</ele>
        <time>2022-08-16T11:41:06Z</time>
      </trkpt>
      <trkpt lat="44.91532" lon="5.15172">
        <ele>905.7</ele>
        <time>2022-08-16T11:41:21Z</time>
      </trkpt>
      <trkpt lat="44.91528" lon="5.15156">
        <ele>906.18</ele>
        <time>2022-08-16T11:41:36Z</time>
      </trkpt>
      <trkpt lat="44.9152" lon="5.15141">
        <ele>906.66</ele>
        <time>2022-08-16T11:41:52Z</time>
      </trkpt>
      <trkpt lat="44.91513" lon="5.15128">
        <ele>907.62</ele>
        <time>2022-08-16T11:42:06Z</time>
      </trkpt>
      <trkpt lat="44.91508" lon="5.15119">
        <ele>909.06</ele>
        <time>2022-08-16T11:42:18Z</time>
      </trkpt>
      <trkpt lat="44.91499" lon="5.15108">
        <ele>910.03</ele>
        <time>2022-08-16T11:42:31Z</time>
      </trkpt>
      <trkpt lat="44.9149" lon="5.15095">
        <ele>910.51</ele>
        <time>2022-08-16T11:42:46Z</time>
      </trkpt>
      <trkpt lat="44.91483" lon="5.15086">
        <ele>911.47</ele>
        <time>2022-08-16T11:42:58Z</time>
      </trkpt>
      <trkpt lat="44.91475" lon="5.15078">
        <ele>914.35</ele>
        <time>2022-08-16T11:43:12Z</time>
      </trkpt>
      <trkpt lat="44.91462" lon="5.15066">
        <ele>914.83</ele>
        <time>2022-08-16T11:43:27Z</time>
      </trkpt>
      <trkpt lat="44.91457" lon="5.15057">
        <ele>914.83</ele>
        <time>2022-08-16T11:43:42Z</time>
      </trkpt>
      <trkpt lat="44.91449" lon="5.15046">
        <ele>914.83</ele>
        <time>2022-08-16T11:43:59Z</time>
      </trkpt>
      <trkpt lat="44.9144" lon="5.15034">
        <ele>914.35</ele>
        <time>2022-08-16T11:44:14Z</time>
      </trkpt>
      <trkpt lat="44.91435" lon="5.15023">
        <ele>913.39</ele>
        <time>2022-08-16T11:44:22Z</time>
      </trkpt>
      <trkpt lat="44.91433" lon="5.1501">
        <ele>912.91</ele>
        <time>2022-08-16T11:44:36Z</time>
      </trkpt>
      <trkpt lat="44.91429" lon="5.15001">
        <ele>912.43</ele>
        <time>2022-08-16T11:44:49Z</time>
      </trkpt>
      <trkpt lat="44.91423" lon="5.14988">
        <ele>912.43</ele>
        <time>2022-08-16T11:45:04Z</time>
      </trkpt>
      <trkpt lat="44.91415" lon="5.1498">
        <ele>913.87</ele>
        <time>2022-08-16T11:45:21Z</time>
      </trkpt>
      <trkpt lat="44.91408" lon="5.14972">
        <ele>915.31</ele>
        <time>2022-08-16T11:45:39Z</time>
      </trkpt>
      <trkpt lat="44.91404" lon="5.14958">
        <ele>913.87</ele>
        <time>2022-08-16T11:45:52Z</time>
      </trkpt>
      <trkpt lat="44.914" lon="5.14949">
        <ele>912.91</ele>
        <time>2022-08-16T11:46:04Z</time>
      </trkpt>
      <trkpt lat="44.91394" lon="5.14938">
        <ele>912.43</ele>
        <time>2022-08-16T11:46:16Z</time>
      </trkpt>
      <trkpt lat="44.91386" lon="5.14926">
        <ele>911.47</ele>
        <time>2022-08-16T11:46:35Z</time>
      </trkpt>
      <trkpt lat="44.91377" lon="5.14914">
        <ele>910.51</ele>
        <time>2022-08-16T11:46:50Z</time>
      </trkpt>
      <trkpt lat="44.9137" lon="5.14903">
        <ele>910.03</ele>
        <time>2022-08-16T11:47:05Z</time>
      </trkpt>
      <trkpt lat="44.9136" lon="5.14894">
        <ele>910.99</ele>
        <time>2022-08-16T11:47:18Z</time>
      </trkpt>
      <trkpt lat="44.91354" lon="5.14883">
        <ele>911.47</ele>
        <time>2022-08-16T11:47:31Z</time>
      </trkpt>
      <trkpt lat="44.91343" lon="5.14871">
        <ele>910.03</ele>
        <time>2022-08-16T11:47:44Z</time>
      </trkpt>
      <trkpt lat="44.91337" lon="5.1486">
        <ele>910.51</ele>
        <time>2022-08-16T11:47:56Z</time>
      </trkpt>
      <trkpt lat="44.9133" lon="5.14852">
        <ele>910.51</ele>
        <time>2022-08-16T11:48:13Z</time>
      </trkpt>
      <trkpt lat="44.9133" lon="5.14851">
        <ele>909.06</ele>
        <time>2022-08-16T11:48:15Z</time>
      </trkpt>
      <trkpt lat="44.91327" lon="5.1484">
        <ele>907.62</ele>
        <time>2022-08-16T11:48:28Z</time>
      </trkpt>
      <trkpt lat="44.9132" lon="5.14822">
        <ele>906.66</ele>
        <time>2022-08-16T11:48:42Z</time>
      </trkpt>
      <trkpt lat="44.91312" lon="5.14812">
        <ele>906.18</ele>
        <time>2022-08-16T11:48:57Z</time>
      </trkpt>
      <trkpt lat="44.91308" lon="5.14795">
        <ele>903.3</ele>
        <time>2022-08-16T11:49:12Z</time>
      </trkpt>
      <trkpt lat="44.91304" lon="5.14783">
        <ele>900.89</ele>
        <time>2022-08-16T11:49:25Z</time>
      </trkpt>
      <trkpt lat="44.91301" lon="5.14773">
        <ele>898.01</ele>
        <time>2022-08-16T11:49:40Z</time>
      </trkpt>
      <trkpt lat="44.91295" lon="5.14761">
        <ele>895.12</ele>
        <time>2022-08-16T11:49:50Z</time>
      </trkpt>
      <trkpt lat="44.91292" lon="5.14756">
        <ele>894.16</ele>
        <time>2022-08-16T11:49:55Z</time>
      </trkpt>
      <trkpt lat="44.91286" lon="5.14741">
        <ele>891.76</ele>
        <time>2022-08-16T11:50:09Z</time>
      </trkpt>
      <trkpt lat="44.91276" lon="5.14726">
        <ele>889.36</ele>
        <time>2022-08-16T11:50:23Z</time>
      </trkpt>
      <trkpt lat="44.91269" lon="5.14708">
        <ele>887.91</ele>
        <time>2022-08-16T11:50:40Z</time>
      </trkpt>
      <trkpt lat="44.91263" lon="5.14691">
        <ele>885.03</ele>
        <time>2022-08-16T11:50:54Z</time>
      </trkpt>
      <trkpt lat="44.91257" lon="5.14677">
        <ele>883.59</ele>
        <time>2022-08-16T11:51:06Z</time>
      </trkpt>
      <trkpt lat="44.9125" lon="5.14664">
        <ele>880.22</ele>
        <time>2022-08-16T11:51:19Z</time>
      </trkpt>
      <trkpt lat="44.91246" lon="5.14652">
        <ele>877.34</ele>
        <time>2022-08-16T11:51:29Z</time>
      </trkpt>
      <trkpt lat="44.91238" lon="5.14639">
        <ele>874.46</ele>
        <time>2022-08-16T11:51:39Z</time>
      </trkpt>
      <trkpt lat="44.91232" lon="5.14625">
        <ele>871.09</ele>
        <time>2022-08-16T11:51:52Z</time>
      </trkpt>
      <trkpt lat="44.91227" lon="5.14614">
        <ele>867.73</ele>
        <time>2022-08-16T11:52:04Z</time>
      </trkpt>
      <trkpt lat="44.91221" lon="5.14602">
        <ele>864.84</ele>
        <time>2022-08-16T11:52:15Z</time>
      </trkpt>
      <trkpt lat="44.91206" lon="5.14585">
        <ele>863.88</ele>
        <time>2022-08-16T11:52:31Z</time>
      </trkpt>
      <trkpt lat="44.91195" lon="5.14571">
        <ele>862.44</ele>
        <time>2022-08-16T11:52:44Z</time>
      </trkpt>
      <trkpt lat="44.91189" lon="5.1456">
        <ele>860.04</ele>
        <time>2022-08-16T11:52:53Z</time>
      </trkpt>
      <trkpt lat="44.91179" lon="5.14541">
        <ele>857.15</ele>
        <time>2022-08-16T11:53:08Z</time>
      </trkpt>
      <trkpt lat="44.91177" lon="5.14532">
        <ele>853.79</ele>
        <time>2022-08-16T11:53:17Z</time>
      </trkpt>
      <trkpt lat="44.91176" lon="5.14515">
        <ele>850.42</ele>
        <time>2022-08-16T11:53:31Z</time>
      </trkpt>
      <trkpt lat="44.91173" lon="5.14498">
        <ele>848.02</ele>
        <time>2022-08-16T11:53:45Z</time>
      </trkpt>
      <trkpt lat="44.91163" lon="5.14485">
        <ele>846.58</ele>
        <time>2022-08-16T11:54:00Z</time>
      </trkpt>
      <trkpt lat="44.9115" lon="5.14479">
        <ele>845.62</ele>
        <time>2022-08-16T11:54:18Z</time>
      </trkpt>
      <trkpt lat="44.91138" lon="5.14478">
        <ele>844.18</ele>
        <time>2022-08-16T11:54:36Z</time>
      </trkpt>
      <trkpt lat="44.91128" lon="5.14479">
        <ele>844.18</ele>
        <time>2022-08-16T11:54:47Z</time>
      </trkpt>
      <trkpt lat="44.91125" lon="5.1448">
        <ele>845.62</ele>
        <time>2022-08-16T11:54:50Z</time>
      </trkpt>
      <trkpt lat="44.91117" lon="5.1448">
        <ele>846.1</ele>
        <time>2022-08-16T11:54:57Z</time>
      </trkpt>
      <trkpt lat="44.91102" lon="5.14473">
        <ele>843.69</ele>
        <time>2022-08-16T11:55:13Z</time>
      </trkpt>
      <trkpt lat="44.91095" lon="5.14467">
        <ele>840.33</ele>
        <time>2022-08-16T11:55:24Z</time>
      </trkpt>
      <trkpt lat="44.91093" lon="5.14455">
        <ele>837.45</ele>
        <time>2022-08-16T11:55:37Z</time>
      </trkpt>
      <trkpt lat="44.91091" lon="5.14442">
        <ele>834.08</ele>
        <time>2022-08-16T11:55:51Z</time>
      </trkpt>
      <trkpt lat="44.91086" lon="5.14433">
        <ele>830.72</ele>
        <time>2022-08-16T11:56:03Z</time>
      </trkpt>
      <trkpt lat="44.91077" lon="5.14427">
        <ele>830.24</ele>
        <time>2022-08-16T11:56:13Z</time>
      </trkpt>
      <trkpt lat="44.91065" lon="5.14418">
        <ele>827.83</ele>
        <time>2022-08-16T11:56:28Z</time>
      </trkpt>
      <trkpt lat="44.91052" lon="5.14414">
        <ele>826.39</ele>
        <time>2022-08-16T11:56:40Z</time>
      </trkpt>
      <trkpt lat="44.91046" lon="5.14405">
        <ele>823.99</ele>
        <time>2022-08-16T11:56:48Z</time>
      </trkpt>
      <trkpt lat="44.91036" lon="5.14399">
        <ele>821.58</ele>
        <time>2022-08-16T11:57:01Z</time>
      </trkpt>
      <trkpt lat="44.91011" lon="5.14394">
        <ele>821.58</ele>
        <time>2022-08-16T11:57:17Z</time>
      </trkpt>
      <trkpt lat="44.90998" lon="5.14382">
        <ele>818.7</ele>
        <time>2022-08-16T11:57:29Z</time>
      </trkpt>
      <trkpt lat="44.90982" lon="5.14371">
        <ele>818.22</ele>
        <time>2022-08-16T11:57:43Z</time>
      </trkpt>
      <trkpt lat="44.90969" lon="5.14354">
        <ele>815.82</ele>
        <time>2022-08-16T11:57:56Z</time>
      </trkpt>
      <trkpt lat="44.90963" lon="5.14343">
        <ele>813.41</ele>
        <time>2022-08-16T11:58:06Z</time>
      </trkpt>
      <trkpt lat="44.90955" lon="5.14333">
        <ele>809.57</ele>
        <time>2022-08-16T11:58:16Z</time>
      </trkpt>
      <trkpt lat="44.90954" lon="5.1433">
        <ele>809.57</ele>
        <time>2022-08-16T11:58:18Z</time>
      </trkpt>
      <trkpt lat="44.90947" lon="5.1432">
        <ele>808.61</ele>
        <time>2022-08-16T11:58:26Z</time>
      </trkpt>
      <trkpt lat="44.90942" lon="5.14313">
        <ele>807.64</ele>
        <time>2022-08-16T11:58:33Z</time>
      </trkpt>
      <trkpt lat="44.90926" lon="5.14299">
        <ele>805.24</ele>
        <time>2022-08-16T11:58:47Z</time>
      </trkpt>
      <trkpt lat="44.90923" lon="5.14294">
        <ele>805.24</ele>
        <time>2022-08-16T11:58:50Z</time>
      </trkpt>
      <trkpt lat="44.90908" lon="5.14277">
        <ele>802.84</ele>
        <time>2022-08-16T11:59:06Z</time>
      </trkpt>
      <trkpt lat="44.90905" lon="5.14272">
        <ele>800.92</ele>
        <time>2022-08-16T11:59:11Z</time>
      </trkpt>
      <trkpt lat="44.90897" lon="5.14256">
        <ele>797.55</ele>
        <time>2022-08-16T11:59:24Z</time>
      </trkpt>
      <trkpt lat="44.90895" lon="5.14255">
        <ele>797.07</ele>
        <time>2022-08-16T11:59:26Z</time>
      </trkpt>
      <trkpt lat="44.9089" lon="5.14249">
        <ele>795.63</ele>
        <time>2022-08-16T11:59:32Z</time>
      </trkpt>
      <trkpt lat="44.90879" lon="5.14233">
        <ele>791.78</ele>
        <time>2022-08-16T11:59:43Z</time>
      </trkpt>
      <trkpt lat="44.9087" lon="5.14222">
        <ele>788.42</ele>
        <time>2022-08-16T11:59:55Z</time>
      </trkpt>
      <trkpt lat="44.90865" lon="5.14217">
        <ele>785.05</ele>
        <time>2022-08-16T12:00:04Z</time>
      </trkpt>
      <trkpt lat="44.9086" lon="5.14211">
        <ele>782.17</ele>
        <time>2022-08-16T12:00:12Z</time>
      </trkpt>
      <trkpt lat="44.90854" lon="5.14205">
        <ele>778.81</ele>
        <time>2022-08-16T12:00:20Z</time>
      </trkpt>
      <trkpt lat="44.90847" lon="5.1419">
        <ele>775.44</ele>
        <time>2022-08-16T12:00:30Z</time>
      </trkpt>
      <trkpt lat="44.9084" lon="5.14179">
        <ele>772.56</ele>
        <time>2022-08-16T12:00:43Z</time>
      </trkpt>
      <trkpt lat="44.90836" lon="5.14173">
        <ele>769.67</ele>
        <time>2022-08-16T12:00:51Z</time>
      </trkpt>
      <trkpt lat="44.90828" lon="5.14165">
        <ele>765.83</ele>
        <time>2022-08-16T12:01:02Z</time>
      </trkpt>
      <trkpt lat="44.90821" lon="5.14161">
        <ele>762.94</ele>
        <time>2022-08-16T12:01:10Z</time>
      </trkpt>
      <trkpt lat="44.90815" lon="5.1415">
        <ele>759.58</ele>
        <time>2022-08-16T12:01:21Z</time>
      </trkpt>
      <trkpt lat="44.90807" lon="5.14139">
        <ele>756.21</ele>
        <time>2022-08-16T12:01:32Z</time>
      </trkpt>
      <trkpt lat="44.90806" lon="5.14135">
        <ele>754.77</ele>
        <time>2022-08-16T12:02:26Z</time>
      </trkpt>
      <trkpt lat="44.90794" lon="5.14115">
        <ele>751.41</ele>
        <time>2022-08-16T12:02:42Z</time>
      </trkpt>
      <trkpt lat="44.9079" lon="5.14105">
        <ele>748.04</ele>
        <time>2022-08-16T12:02:51Z</time>
      </trkpt>
      <trkpt lat="44.90784" lon="5.14086">
        <ele>744.68</ele>
        <time>2022-08-16T12:03:03Z</time>
      </trkpt>
      <trkpt lat="44.90778" lon="5.14074">
        <ele>742.28</ele>
        <time>2022-08-16T12:03:13Z</time>
      </trkpt>
      <trkpt lat="44.90768" lon="5.14061">
        <ele>740.83</ele>
        <time>2022-08-16T12:03:26Z</time>
      </trkpt>
      <trkpt lat="44.90758" lon="5.14046">
        <ele>738.43</ele>
        <time>2022-08-16T12:03:40Z</time>
      </trkpt>
      <trkpt lat="44.90753" lon="5.14036">
        <ele>735.55</ele>
        <time>2022-08-16T12:03:49Z</time>
      </trkpt>
      <trkpt lat="44.90748" lon="5.14022">
        <ele>732.66</ele>
        <time>2022-08-16T12:03:59Z</time>
      </trkpt>
      <trkpt lat="44.90744" lon="5.14009">
        <ele>729.3</ele>
        <time>2022-08-16T12:04:09Z</time>
      </trkpt>
      <trkpt lat="44.90742" lon="5.14002">
        <ele>727.37</ele>
        <time>2022-08-16T12:04:15Z</time>
      </trkpt>
      <trkpt lat="44.90737" lon="5.13987">
        <ele>724.01</ele>
        <time>2022-08-16T12:04:26Z</time>
      </trkpt>
      <trkpt lat="44.90733" lon="5.13975">
        <ele>720.65</ele>
        <time>2022-08-16T12:04:34Z</time>
      </trkpt>
      <trkpt lat="44.90727" lon="5.13961">
        <ele>717.76</ele>
        <time>2022-08-16T12:04:45Z</time>
      </trkpt>
      <trkpt lat="44.90721" lon="5.1395">
        <ele>714.4</ele>
        <time>2022-08-16T12:04:55Z</time>
      </trkpt>
      <trkpt lat="44.90716" lon="5.13935">
        <ele>711.03</ele>
        <time>2022-08-16T12:05:04Z</time>
      </trkpt>
      <trkpt lat="44.9071" lon="5.1392">
        <ele>708.63</ele>
        <time>2022-08-16T12:05:17Z</time>
      </trkpt>
      <trkpt lat="44.90709" lon="5.13917">
        <ele>708.15</ele>
        <time>2022-08-16T12:05:32Z</time>
      </trkpt>
      <trkpt lat="44.90706" lon="5.13906">
        <ele>705.75</ele>
        <time>2022-08-16T12:05:55Z</time>
      </trkpt>
      <trkpt lat="44.90703" lon="5.13897">
        <ele>704.3</ele>
        <time>2022-08-16T12:06:01Z</time>
      </trkpt>
      <trkpt lat="44.90699" lon="5.13887">
        <ele>701.42</ele>
        <time>2022-08-16T12:06:09Z</time>
      </trkpt>
      <trkpt lat="44.90693" lon="5.1387">
        <ele>698.53</ele>
        <time>2022-08-16T12:06:21Z</time>
      </trkpt>
      <trkpt lat="44.90689" lon="5.13857">
        <ele>695.65</ele>
        <time>2022-08-16T12:06:31Z</time>
      </trkpt>
      <trkpt lat="44.90682" lon="5.13842">
        <ele>692.29</ele>
        <time>2022-08-16T12:06:43Z</time>
      </trkpt>
      <trkpt lat="44.90675" lon="5.13828">
        <ele>689.4</ele>
        <time>2022-08-16T12:06:53Z</time>
      </trkpt>
      <trkpt lat="44.90668" lon="5.13812">
        <ele>685.56</ele>
        <time>2022-08-16T12:07:05Z</time>
      </trkpt>
      <trkpt lat="44.90663" lon="5.13801">
        <ele>683.63</ele>
        <time>2022-08-16T12:07:12Z</time>
      </trkpt>
      <trkpt lat="44.90657" lon="5.13782">
        <ele>679.79</ele>
        <time>2022-08-16T12:07:26Z</time>
      </trkpt>
      <trkpt lat="44.90655" lon="5.13778">
        <ele>679.31</ele>
        <time>2022-08-16T12:07:29Z</time>
      </trkpt>
      <trkpt lat="44.90648" lon="5.13764">
        <ele>676.42</ele>
        <time>2022-08-16T12:07:40Z</time>
      </trkpt>
      <trkpt lat="44.90641" lon="5.13748">
        <ele>673.06</ele>
        <time>2022-08-16T12:07:52Z</time>
      </trkpt>
      <trkpt lat="44.90635" lon="5.13735">
        <ele>669.7</ele>
        <time>2022-08-16T12:08:05Z</time>
      </trkpt>
      <trkpt lat="44.90632" lon="5.13716">
        <ele>667.29</ele>
        <time>2022-08-16T12:08:18Z</time>
      </trkpt>
      <trkpt lat="44.90628" lon="5.13696">
        <ele>664.89</ele>
        <time>2022-08-16T12:08:29Z</time>
      </trkpt>
      <trkpt lat="44.90625" lon="5.13677">
        <ele>661.52</ele>
        <time>2022-08-16T12:08:40Z</time>
      </trkpt>
      <trkpt lat="44.9062" lon="5.13657">
        <ele>658.16</ele>
        <time>2022-08-16T12:08:52Z</time>
      </trkpt>
      <trkpt lat="44.90618" lon="5.13652">
        <ele>657.68</ele>
        <time>2022-08-16T12:08:55Z</time>
      </trkpt>
      <trkpt lat="44.90615" lon="5.13644">
        <ele>656.24</ele>
        <time>2022-08-16T12:09:00Z</time>
      </trkpt>
      <trkpt lat="44.90615" lon="5.13637">
        <ele>654.8</ele>
        <time>2022-08-16T12:09:04Z</time>
      </trkpt>
      <trkpt lat="44.90613" lon="5.13628">
        <ele>653.83</ele>
        <time>2022-08-16T12:09:10Z</time>
      </trkpt>
      <trkpt lat="44.90604" lon="5.13605">
        <ele>649.51</ele>
        <time>2022-08-16T12:09:23Z</time>
      </trkpt>
      <trkpt lat="44.90596" lon="5.13588">
        <ele>646.14</ele>
        <time>2022-08-16T12:09:36Z</time>
      </trkpt>
      <trkpt lat="44.90588" lon="5.13576">
        <ele>643.26</ele>
        <time>2022-08-16T12:09:49Z</time>
      </trkpt>
      <trkpt lat="44.90585" lon="5.13566">
        <ele>640.38</ele>
        <time>2022-08-16T12:09:57Z</time>
      </trkpt>
      <trkpt lat="44.90583" lon="5.13552">
        <ele>637.49</ele>
        <time>2022-08-16T12:10:11Z</time>
      </trkpt>
      <trkpt lat="44.90582" lon="5.13547">
        <ele>636.53</ele>
        <time>2022-08-16T12:10:14Z</time>
      </trkpt>
      <trkpt lat="44.90578" lon="5.13528">
        <ele>632.68</ele>
        <time>2022-08-16T12:10:26Z</time>
      </trkpt>
      <trkpt lat="44.90574" lon="5.13509">
        <ele>629.8</ele>
        <time>2022-08-16T12:10:37Z</time>
      </trkpt>
      <trkpt lat="44.90567" lon="5.1348">
        <ele>626.44</ele>
        <time>2022-08-16T12:10:53Z</time>
      </trkpt>
      <trkpt lat="44.90561" lon="5.13454">
        <ele>623.07</ele>
        <time>2022-08-16T12:11:08Z</time>
      </trkpt>
      <trkpt lat="44.90556" lon="5.13433">
        <ele>621.63</ele>
        <time>2022-08-16T12:11:19Z</time>
      </trkpt>
      <trkpt lat="44.90553" lon="5.1341">
        <ele>619.23</ele>
        <time>2022-08-16T12:11:32Z</time>
      </trkpt>
      <trkpt lat="44.90552" lon="5.13402">
        <ele>618.26</ele>
        <time>2022-08-16T12:11:37Z</time>
      </trkpt>
      <trkpt lat="44.90556" lon="5.13382">
        <ele>615.38</ele>
        <time>2022-08-16T12:11:52Z</time>
      </trkpt>
      <trkpt lat="44.90558" lon="5.13368">
        <ele>612.02</ele>
        <time>2022-08-16T12:12:04Z</time>
      </trkpt>
      <trkpt lat="44.90561" lon="5.13348">
        <ele>608.65</ele>
        <time>2022-08-16T12:12:22Z</time>
      </trkpt>
      <trkpt lat="44.90563" lon="5.13329">
        <ele>605.77</ele>
        <time>2022-08-16T12:12:37Z</time>
      </trkpt>
      <trkpt lat="44.90566" lon="5.13312">
        <ele>603.85</ele>
        <time>2022-08-16T12:12:49Z</time>
      </trkpt>
      <trkpt lat="44.90567" lon="5.13291">
        <ele>600.48</ele>
        <time>2022-08-16T12:13:03Z</time>
      </trkpt>
      <trkpt lat="44.90569" lon="5.13272">
        <ele>597.12</ele>
        <time>2022-08-16T12:13:17Z</time>
      </trkpt>
      <trkpt lat="44.90572" lon="5.13251">
        <ele>594.23</ele>
        <time>2022-08-16T12:13:32Z</time>
      </trkpt>
      <trkpt lat="44.90573" lon="5.1325">
        <ele>594.23</ele>
        <time>2022-08-16T12:13:33Z</time>
      </trkpt>
      <trkpt lat="44.90575" lon="5.13245">
        <ele>592.79</ele>
        <time>2022-08-16T12:13:37Z</time>
      </trkpt>
      <trkpt lat="44.90575" lon="5.13242">
        <ele>592.79</ele>
        <time>2022-08-16T12:13:39Z</time>
      </trkpt>
      <trkpt lat="44.90575" lon="5.13234">
        <ele>591.83</ele>
        <time>2022-08-16T12:13:44Z</time>
      </trkpt>
      <trkpt lat="44.90577" lon="5.13227">
        <ele>590.39</ele>
        <time>2022-08-16T12:13:49Z</time>
      </trkpt>
      <trkpt lat="44.90581" lon="5.13209">
        <ele>587.5</ele>
        <time>2022-08-16T12:14:03Z</time>
      </trkpt>
      <trkpt lat="44.90584" lon="5.13187">
        <ele>584.14</ele>
        <time>2022-08-16T12:14:18Z</time>
      </trkpt>
      <trkpt lat="44.90584" lon="5.13182">
        <ele>583.18</ele>
        <time>2022-08-16T12:14:21Z</time>
      </trkpt>
      <trkpt lat="44.90584" lon="5.13156">
        <ele>580.77</ele>
        <time>2022-08-16T12:14:38Z</time>
      </trkpt>
      <trkpt lat="44.90585" lon="5.13132">
        <ele>577.89</ele>
        <time>2022-08-16T12:14:54Z</time>
      </trkpt>
      <trkpt lat="44.90583" lon="5.13113">
        <ele>577.41</ele>
        <time>2022-08-16T12:15:08Z</time>
      </trkpt>
      <trkpt lat="44.90583" lon="5.13101">
        <ele>574.04</ele>
        <time>2022-08-16T12:15:14Z</time>
      </trkpt>
      <trkpt lat="44.90584" lon="5.13096">
        <ele>573.56</ele>
        <time>2022-08-16T12:15:17Z</time>
      </trkpt>
      <trkpt lat="44.90585" lon="5.13085">
        <ele>572.12</ele>
        <time>2022-08-16T12:15:23Z</time>
      </trkpt>
      <trkpt lat="44.90587" lon="5.1306">
        <ele>568.28</ele>
        <time>2022-08-16T12:15:36Z</time>
      </trkpt>
      <trkpt lat="44.9059" lon="5.13036">
        <ele>565.39</ele>
        <time>2022-08-16T12:15:49Z</time>
      </trkpt>
      <trkpt lat="44.90594" lon="5.13004">
        <ele>562.03</ele>
        <time>2022-08-16T12:16:05Z</time>
      </trkpt>
      <trkpt lat="44.90596" lon="5.12972">
        <ele>558.66</ele>
        <time>2022-08-16T12:16:21Z</time>
      </trkpt>
      <trkpt lat="44.90598" lon="5.12946">
        <ele>555.3</ele>
        <time>2022-08-16T12:16:35Z</time>
      </trkpt>
      <trkpt lat="44.90601" lon="5.12919">
        <ele>551.93</ele>
        <time>2022-08-16T12:16:50Z</time>
      </trkpt>
      <trkpt lat="44.90603" lon="5.12886">
        <ele>549.05</ele>
        <time>2022-08-16T12:17:07Z</time>
      </trkpt>
      <trkpt lat="44.90604" lon="5.1286">
        <ele>546.17</ele>
        <time>2022-08-16T12:17:20Z</time>
      </trkpt>
      <trkpt lat="44.90606" lon="5.12838">
        <ele>542.8</ele>
        <time>2022-08-16T12:17:33Z</time>
      </trkpt>
      <trkpt lat="44.9061" lon="5.12809">
        <ele>539.44</ele>
        <time>2022-08-16T12:17:48Z</time>
      </trkpt>
      <trkpt lat="44.90612" lon="5.12797">
        <ele>538.48</ele>
        <time>2022-08-16T12:17:54Z</time>
      </trkpt>
      <trkpt lat="44.9062" lon="5.12759">
        <ele>535.11</ele>
        <time>2022-08-16T12:18:14Z</time>
      </trkpt>
      <trkpt lat="44.90627" lon="5.12731">
        <ele>533.19</ele>
        <time>2022-08-16T12:18:29Z</time>
      </trkpt>
      <trkpt lat="44.90632" lon="5.12723">
        <ele>532.23</ele>
        <time>2022-08-16T12:18:40Z</time>
      </trkpt>
      <trkpt lat="44.90638" lon="5.127">
        <ele>529.34</ele>
        <time>2022-08-16T12:18:57Z</time>
      </trkpt>
      <trkpt lat="44.90644" lon="5.12678">
        <ele>525.98</ele>
        <time>2022-08-16T12:19:10Z</time>
      </trkpt>
      <trkpt lat="44.90644" lon="5.12675">
        <ele>525.98</ele>
        <time>2022-08-16T12:19:12Z</time>
      </trkpt>
      <trkpt lat="44.90644" lon="5.12653">
        <ele>522.61</ele>
        <time>2022-08-16T12:19:26Z</time>
      </trkpt>
      <trkpt lat="44.90635" lon="5.12635">
        <ele>519.25</ele>
        <time>2022-08-16T12:19:40Z</time>
      </trkpt>
      <trkpt lat="44.90625" lon="5.12626">
        <ele>516.37</ele>
        <time>2022-08-16T12:19:52Z</time>
      </trkpt>
      <trkpt lat="44.90616" lon="5.12618">
        <ele>513</ele>
        <time>2022-08-16T12:20:04Z</time>
      </trkpt>
      <trkpt lat="44.90612" lon="5.1261">
        <ele>509.64</ele>
        <time>2022-08-16T12:20:14Z</time>
      </trkpt>
      <trkpt lat="44.90615" lon="5.12602">
        <ele>505.79</ele>
        <time>2022-08-16T12:20:26Z</time>
      </trkpt>
      <trkpt lat="44.90619" lon="5.12586">
        <ele>502.43</ele>
        <time>2022-08-16T12:20:39Z</time>
      </trkpt>
      <trkpt lat="44.9062" lon="5.12585">
        <ele>501.95</ele>
        <time>2022-08-16T12:20:40Z</time>
      </trkpt>
      <trkpt lat="44.90616" lon="5.12571">
        <ele>499.54</ele>
        <time>2022-08-16T12:20:54Z</time>
      </trkpt>
      <trkpt lat="44.90616" lon="5.12562">
        <ele>497.62</ele>
        <time>2022-08-16T12:21:01Z</time>
      </trkpt>
      <trkpt lat="44.90618" lon="5.12557">
        <ele>496.66</ele>
        <time>2022-08-16T12:21:05Z</time>
      </trkpt>
      <trkpt lat="44.90623" lon="5.12551">
        <ele>495.7</ele>
        <time>2022-08-16T12:21:12Z</time>
      </trkpt>
      <trkpt lat="44.90629" lon="5.12533">
        <ele>492.33</ele>
        <time>2022-08-16T12:21:28Z</time>
      </trkpt>
      <trkpt lat="44.90636" lon="5.12517">
        <ele>488.49</ele>
        <time>2022-08-16T12:21:42Z</time>
      </trkpt>
      <trkpt lat="44.90636" lon="5.12515">
        <ele>488.49</ele>
        <time>2022-08-16T12:21:43Z</time>
      </trkpt>
      <trkpt lat="44.90638" lon="5.1251">
        <ele>488.01</ele>
        <time>2022-08-16T12:21:46Z</time>
      </trkpt>
      <trkpt lat="44.90641" lon="5.12506">
        <ele>487.05</ele>
        <time>2022-08-16T12:21:49Z</time>
      </trkpt>
      <trkpt lat="44.90643" lon="5.12499">
        <ele>486.08</ele>
        <time>2022-08-16T12:21:54Z</time>
      </trkpt>
      <trkpt lat="44.90644" lon="5.12493">
        <ele>485.6</ele>
        <time>2022-08-16T12:21:58Z</time>
      </trkpt>
      <trkpt lat="44.90645" lon="5.1249">
        <ele>485.12</ele>
        <time>2022-08-16T12:22:00Z</time>
      </trkpt>
      <trkpt lat="44.90641" lon="5.12462">
        <ele>481.28</ele>
        <time>2022-08-16T12:22:16Z</time>
      </trkpt>
      <trkpt lat="44.90642" lon="5.12425">
        <ele>478.39</ele>
        <time>2022-08-16T12:22:35Z</time>
      </trkpt>
      <trkpt lat="44.90652" lon="5.12403">
        <ele>475.99</ele>
        <time>2022-08-16T12:22:47Z</time>
      </trkpt>
      <trkpt lat="44.90658" lon="5.12394">
        <ele>474.55</ele>
        <time>2022-08-16T12:22:54Z</time>
      </trkpt>
      <trkpt lat="44.90664" lon="5.1237">
        <ele>473.11</ele>
        <time>2022-08-16T12:23:08Z</time>
      </trkpt>
      <trkpt lat="44.90653" lon="5.12348">
        <ele>471.18</ele>
        <time>2022-08-16T12:23:22Z</time>
      </trkpt>
      <trkpt lat="44.90639" lon="5.1232">
        <ele>469.74</ele>
        <time>2022-08-16T12:23:39Z</time>
      </trkpt>
      <trkpt lat="44.90634" lon="5.12292">
        <ele>468.3</ele>
        <time>2022-08-16T12:23:55Z</time>
      </trkpt>
      <trkpt lat="44.90636" lon="5.12264">
        <ele>467.34</ele>
        <time>2022-08-16T12:24:10Z</time>
      </trkpt>
      <trkpt lat="44.90634" lon="5.12247">
        <ele>466.38</ele>
        <time>2022-08-16T12:24:25Z</time>
      </trkpt>
    </trkseg>
  </trk>
</gpx>